<?xml version="1.0" encoding="UTF-8" standalone="no" ?>
<gpx xmlns="http://www.topografix.com/GPX/1/1" xmlns:xsi="http://www.w3.org/2001/XMLSchema-instance" xsi:schemaLocation="http://www.topografix.com/GPX/1/1 http://www.topografix.com/GPX/1/1/gpx.xsd" version="1.1" creator="VisuGPX - https://www.visugpx.com">
  <metadata>
    <name>BMLD 2019 200km Partie 2/3</name>
    <desc><![CDATA[Deuxième partie (km 80 à 140) du Brevet du Marcheur Longue Distance organisé à Chantonnay (85) du 30 mai au 2 juin 2019]]></desc>
  </metadata>
  <trk>
    <name><![CDATA[20190313114717-3F8Eb]]></name>
    <trkseg>
      <trkpt lat="46.54091" lon="-0.81724">
        <ele>93</ele>
        <time>2019-03-05T08:57:49Z</time>
      </trkpt>
      <trkpt lat="46.54094" lon="-0.81725">
        <ele>94</ele>
        <time>2019-03-05T08:58:49Z</time>
      </trkpt>
      <trkpt lat="46.54103" lon="-0.81716">
        <ele>94</ele>
        <time>2019-03-05T08:59:49Z</time>
      </trkpt>
      <trkpt lat="46.54295" lon="-0.81677">
        <ele>97</ele>
        <time>2019-03-05T09:00:49Z</time>
      </trkpt>
      <trkpt lat="46.54342" lon="-0.81655">
        <ele>99</ele>
        <time>2019-03-05T09:01:49Z</time>
      </trkpt>
      <trkpt lat="46.54527" lon="-0.81578">
        <ele>104</ele>
        <time>2019-03-05T09:02:49Z</time>
      </trkpt>
      <trkpt lat="46.54727" lon="-0.81447">
        <ele>111</ele>
        <time>2019-03-05T09:03:49Z</time>
      </trkpt>
      <trkpt lat="46.5497" lon="-0.81253">
        <ele>118</ele>
        <time>2019-03-05T09:04:49Z</time>
      </trkpt>
      <trkpt lat="46.54987" lon="-0.81236">
        <ele>117</ele>
        <time>2019-03-05T09:05:49Z</time>
      </trkpt>
      <trkpt lat="46.55003" lon="-0.81236">
        <ele>117</ele>
        <time>2019-03-05T09:06:49Z</time>
      </trkpt>
      <trkpt lat="46.55006" lon="-0.81223">
        <ele>117</ele>
        <time>2019-03-05T09:07:49Z</time>
      </trkpt>
      <trkpt lat="46.55057" lon="-0.81188">
        <ele>116</ele>
        <time>2019-03-05T09:08:49Z</time>
      </trkpt>
      <trkpt lat="46.55116" lon="-0.81161">
        <ele>114</ele>
        <time>2019-03-05T09:09:49Z</time>
      </trkpt>
      <trkpt lat="46.55165" lon="-0.81134">
        <ele>109</ele>
        <time>2019-03-05T09:10:49Z</time>
      </trkpt>
      <trkpt lat="46.55225" lon="-0.81117">
        <ele>107</ele>
        <time>2019-03-05T09:11:49Z</time>
      </trkpt>
      <trkpt lat="46.55243" lon="-0.81106">
        <ele>106</ele>
        <time>2019-03-05T09:12:49Z</time>
      </trkpt>
      <trkpt lat="46.55288" lon="-0.8104">
        <ele>106</ele>
        <time>2019-03-05T09:13:49Z</time>
      </trkpt>
      <trkpt lat="46.55332" lon="-0.80986">
        <ele>107</ele>
        <time>2019-03-05T09:14:49Z</time>
      </trkpt>
      <trkpt lat="46.55373" lon="-0.80945">
        <ele>107</ele>
        <time>2019-03-05T09:15:49Z</time>
      </trkpt>
      <trkpt lat="46.55451" lon="-0.80927">
        <ele>108</ele>
        <time>2019-03-05T09:16:49Z</time>
      </trkpt>
      <trkpt lat="46.55526" lon="-0.80881">
        <ele>104</ele>
        <time>2019-03-05T09:17:49Z</time>
      </trkpt>
      <trkpt lat="46.55592" lon="-0.80833">
        <ele>96</ele>
        <time>2019-03-05T09:18:49Z</time>
      </trkpt>
      <trkpt lat="46.55632" lon="-0.80815">
        <ele>96</ele>
        <time>2019-03-05T09:19:49Z</time>
      </trkpt>
      <trkpt lat="46.55646" lon="-0.80827">
        <ele>96</ele>
        <time>2019-03-05T09:20:49Z</time>
      </trkpt>
      <trkpt lat="46.55695" lon="-0.80885">
        <ele>98</ele>
        <time>2019-03-05T09:21:49Z</time>
      </trkpt>
      <trkpt lat="46.55714" lon="-0.80843">
        <ele>95</ele>
        <time>2019-03-05T09:22:49Z</time>
      </trkpt>
      <trkpt lat="46.55865" lon="-0.8063">
        <ele>84</ele>
        <time>2019-03-05T09:23:49Z</time>
      </trkpt>
      <trkpt lat="46.55862" lon="-0.80623">
        <ele>84</ele>
        <time>2019-03-05T09:24:49Z</time>
      </trkpt>
      <trkpt lat="46.55865" lon="-0.8063">
        <ele>84</ele>
        <time>2019-03-05T09:25:49Z</time>
      </trkpt>
      <trkpt lat="46.55883" lon="-0.80593">
        <ele>83</ele>
        <time>2019-03-05T09:26:49Z</time>
      </trkpt>
      <trkpt lat="46.55907" lon="-0.80561">
        <ele>82</ele>
        <time>2019-03-05T09:27:49Z</time>
      </trkpt>
      <trkpt lat="46.55925" lon="-0.80524">
        <ele>81</ele>
        <time>2019-03-05T09:28:49Z</time>
      </trkpt>
      <trkpt lat="46.55932" lon="-0.80502">
        <ele>80</ele>
        <time>2019-03-05T09:29:49Z</time>
      </trkpt>
      <trkpt lat="46.55958" lon="-0.80496">
        <ele>77</ele>
        <time>2019-03-05T09:30:49Z</time>
      </trkpt>
      <trkpt lat="46.56017" lon="-0.80458">
        <ele>73</ele>
        <time>2019-03-05T09:31:49Z</time>
      </trkpt>
      <trkpt lat="46.56081" lon="-0.80443">
        <ele>76</ele>
        <time>2019-03-05T09:32:49Z</time>
      </trkpt>
      <trkpt lat="46.56098" lon="-0.80431">
        <ele>77</ele>
        <time>2019-03-05T09:33:49Z</time>
      </trkpt>
      <trkpt lat="46.56117" lon="-0.80393">
        <ele>78</ele>
        <time>2019-03-05T09:34:49Z</time>
      </trkpt>
      <trkpt lat="46.56163" lon="-0.80342">
        <ele>83</ele>
        <time>2019-03-05T09:35:49Z</time>
      </trkpt>
      <trkpt lat="46.56216" lon="-0.80314">
        <ele>82</ele>
        <time>2019-03-05T09:36:49Z</time>
      </trkpt>
      <trkpt lat="46.56223" lon="-0.80299">
        <ele>82</ele>
        <time>2019-03-05T09:37:49Z</time>
      </trkpt>
      <trkpt lat="46.56256" lon="-0.80274">
        <ele>80</ele>
        <time>2019-03-05T09:38:49Z</time>
      </trkpt>
      <trkpt lat="46.56336" lon="-0.80223">
        <ele>80</ele>
        <time>2019-03-05T09:39:49Z</time>
      </trkpt>
      <trkpt lat="46.56405" lon="-0.80187">
        <ele>75</ele>
        <time>2019-03-05T09:40:49Z</time>
      </trkpt>
      <trkpt lat="46.56475" lon="-0.80128">
        <ele>67</ele>
        <time>2019-03-05T09:41:49Z</time>
      </trkpt>
      <trkpt lat="46.56475" lon="-0.80128">
        <ele>67</ele>
        <time>2019-03-05T09:42:49Z</time>
      </trkpt>
      <trkpt lat="46.56526" lon="-0.8004">
        <ele>60</ele>
        <time>2019-03-05T09:43:49Z</time>
      </trkpt>
      <trkpt lat="46.56526" lon="-0.8004">
        <ele>60</ele>
        <time>2019-03-05T09:44:49Z</time>
      </trkpt>
      <trkpt lat="46.56509" lon="-0.80021">
        <ele>60</ele>
        <time>2019-03-05T09:45:49Z</time>
      </trkpt>
      <trkpt lat="46.56509" lon="-0.80021">
        <ele>60</ele>
        <time>2019-03-05T09:46:49Z</time>
      </trkpt>
      <trkpt lat="46.56465" lon="-0.80055">
        <ele>61</ele>
        <time>2019-03-05T09:47:49Z</time>
      </trkpt>
      <trkpt lat="46.56457" lon="-0.80057">
        <ele>61</ele>
        <time>2019-03-05T09:48:49Z</time>
      </trkpt>
      <trkpt lat="46.5643" lon="-0.80044">
        <ele>59</ele>
        <time>2019-03-05T09:49:49Z</time>
      </trkpt>
      <trkpt lat="46.56409" lon="-0.80024">
        <ele>58</ele>
        <time>2019-03-05T09:50:49Z</time>
      </trkpt>
      <trkpt lat="46.56405" lon="-0.80002">
        <ele>56</ele>
        <time>2019-03-05T09:51:49Z</time>
      </trkpt>
      <trkpt lat="46.56412" lon="-0.79971">
        <ele>56</ele>
        <time>2019-03-05T09:52:49Z</time>
      </trkpt>
      <trkpt lat="46.56414" lon="-0.7994">
        <ele>57</ele>
        <time>2019-03-05T09:53:49Z</time>
      </trkpt>
      <trkpt lat="46.56373" lon="-0.79967">
        <ele>58</ele>
        <time>2019-03-05T09:54:49Z</time>
      </trkpt>
      <trkpt lat="46.56368" lon="-0.79935">
        <ele>59</ele>
        <time>2019-03-05T09:55:49Z</time>
      </trkpt>
      <trkpt lat="46.56369" lon="-0.79892">
        <ele>62</ele>
        <time>2019-03-05T09:56:49Z</time>
      </trkpt>
      <trkpt lat="46.56374" lon="-0.79876">
        <ele>63</ele>
        <time>2019-03-05T09:57:49Z</time>
      </trkpt>
      <trkpt lat="46.56388" lon="-0.79864">
        <ele>63</ele>
        <time>2019-03-05T09:58:49Z</time>
      </trkpt>
      <trkpt lat="46.5642" lon="-0.79853">
        <ele>60</ele>
        <time>2019-03-05T09:59:49Z</time>
      </trkpt>
      <trkpt lat="46.56445" lon="-0.7984">
        <ele>64</ele>
        <time>2019-03-05T10:00:49Z</time>
      </trkpt>
      <trkpt lat="46.5646" lon="-0.79813">
        <ele>66</ele>
        <time>2019-03-05T10:01:49Z</time>
      </trkpt>
      <trkpt lat="46.56463" lon="-0.79773">
        <ele>67</ele>
        <time>2019-03-05T10:02:49Z</time>
      </trkpt>
      <trkpt lat="46.56481" lon="-0.79743">
        <ele>69</ele>
        <time>2019-03-05T10:03:49Z</time>
      </trkpt>
      <trkpt lat="46.56647" lon="-0.79737">
        <ele>80</ele>
        <time>2019-03-05T10:04:49Z</time>
      </trkpt>
      <trkpt lat="46.5667" lon="-0.79725">
        <ele>80</ele>
        <time>2019-03-05T10:05:49Z</time>
      </trkpt>
      <trkpt lat="46.5669" lon="-0.79695">
        <ele>80</ele>
        <time>2019-03-05T10:06:49Z</time>
      </trkpt>
      <trkpt lat="46.56697" lon="-0.79668">
        <ele>80</ele>
        <time>2019-03-05T10:07:49Z</time>
      </trkpt>
      <trkpt lat="46.56677" lon="-0.79669">
        <ele>80</ele>
        <time>2019-03-05T10:08:49Z</time>
      </trkpt>
      <trkpt lat="46.56659" lon="-0.79682">
        <ele>79</ele>
        <time>2019-03-05T10:09:49Z</time>
      </trkpt>
      <trkpt lat="46.56649" lon="-0.79692">
        <ele>79</ele>
        <time>2019-03-05T10:10:49Z</time>
      </trkpt>
      <trkpt lat="46.56635" lon="-0.79688">
        <ele>78</ele>
        <time>2019-03-05T10:11:49Z</time>
      </trkpt>
      <trkpt lat="46.56554" lon="-0.79487">
        <ele>74</ele>
        <time>2019-03-05T10:12:49Z</time>
      </trkpt>
      <trkpt lat="46.56542" lon="-0.79473">
        <ele>74</ele>
        <time>2019-03-05T10:13:49Z</time>
      </trkpt>
      <trkpt lat="46.5652" lon="-0.79464">
        <ele>72</ele>
        <time>2019-03-05T10:14:49Z</time>
      </trkpt>
      <trkpt lat="46.56485" lon="-0.7946">
        <ele>70</ele>
        <time>2019-03-05T10:15:49Z</time>
      </trkpt>
      <trkpt lat="46.56431" lon="-0.79461">
        <ele>67</ele>
        <time>2019-03-05T10:16:49Z</time>
      </trkpt>
      <trkpt lat="46.56398" lon="-0.79455">
        <ele>66</ele>
        <time>2019-03-05T10:17:49Z</time>
      </trkpt>
      <trkpt lat="46.56362" lon="-0.79417">
        <ele>68</ele>
        <time>2019-03-05T10:18:49Z</time>
      </trkpt>
      <trkpt lat="46.56338" lon="-0.79386">
        <ele>69</ele>
        <time>2019-03-05T10:19:49Z</time>
      </trkpt>
      <trkpt lat="46.56329" lon="-0.79385">
        <ele>69</ele>
        <time>2019-03-05T10:20:49Z</time>
      </trkpt>
      <trkpt lat="46.5633" lon="-0.79379">
        <ele>69</ele>
        <time>2019-03-05T10:21:49Z</time>
      </trkpt>
      <trkpt lat="46.56394" lon="-0.79313">
        <ele>74</ele>
        <time>2019-03-05T10:22:49Z</time>
      </trkpt>
      <trkpt lat="46.56394" lon="-0.79313">
        <ele>74</ele>
        <time>2019-03-05T10:23:49Z</time>
      </trkpt>
      <trkpt lat="46.56353" lon="-0.79267">
        <ele>75</ele>
        <time>2019-03-05T10:24:49Z</time>
      </trkpt>
      <trkpt lat="46.56355" lon="-0.79262">
        <ele>75</ele>
        <time>2019-03-05T10:25:49Z</time>
      </trkpt>
      <trkpt lat="46.56352" lon="-0.79259">
        <ele>76</ele>
        <time>2019-03-05T10:26:49Z</time>
      </trkpt>
      <trkpt lat="46.56421" lon="-0.79061">
        <ele>81</ele>
        <time>2019-03-05T10:27:49Z</time>
      </trkpt>
      <trkpt lat="46.56431" lon="-0.79058">
        <ele>81</ele>
        <time>2019-03-05T10:28:49Z</time>
      </trkpt>
      <trkpt lat="46.56499" lon="-0.78918">
        <ele>86</ele>
        <time>2019-03-05T10:29:49Z</time>
      </trkpt>
      <trkpt lat="46.56544" lon="-0.78812">
        <ele>88</ele>
        <time>2019-03-05T10:30:49Z</time>
      </trkpt>
      <trkpt lat="46.56599" lon="-0.78662">
        <ele>90</ele>
        <time>2019-03-05T10:31:49Z</time>
      </trkpt>
      <trkpt lat="46.56614" lon="-0.78559">
        <ele>88</ele>
        <time>2019-03-05T10:32:49Z</time>
      </trkpt>
      <trkpt lat="46.56626" lon="-0.78497">
        <ele>87</ele>
        <time>2019-03-05T10:33:49Z</time>
      </trkpt>
      <trkpt lat="46.56714" lon="-0.78374">
        <ele>82</ele>
        <time>2019-03-05T10:34:49Z</time>
      </trkpt>
      <trkpt lat="46.56762" lon="-0.78293">
        <ele>77</ele>
        <time>2019-03-05T10:35:49Z</time>
      </trkpt>
      <trkpt lat="46.56823" lon="-0.78175">
        <ele>66</ele>
        <time>2019-03-05T10:36:49Z</time>
      </trkpt>
      <trkpt lat="46.56842" lon="-0.7816">
        <ele>63</ele>
        <time>2019-03-05T10:37:49Z</time>
      </trkpt>
      <trkpt lat="46.56872" lon="-0.78175">
        <ele>63</ele>
        <time>2019-03-05T10:38:49Z</time>
      </trkpt>
      <trkpt lat="46.56906" lon="-0.78178">
        <ele>61</ele>
        <time>2019-03-05T10:39:49Z</time>
      </trkpt>
      <trkpt lat="46.56903" lon="-0.78149">
        <ele>59</ele>
        <time>2019-03-05T10:40:49Z</time>
      </trkpt>
      <trkpt lat="46.56909" lon="-0.78105">
        <ele>55</ele>
        <time>2019-03-05T10:41:49Z</time>
      </trkpt>
      <trkpt lat="46.57012" lon="-0.77822">
        <ele>49</ele>
        <time>2019-03-05T10:42:49Z</time>
      </trkpt>
      <trkpt lat="46.57057" lon="-0.77692">
        <ele>51</ele>
        <time>2019-03-05T10:43:49Z</time>
      </trkpt>
      <trkpt lat="46.57045" lon="-0.77688">
        <ele>50</ele>
        <time>2019-03-05T10:44:49Z</time>
      </trkpt>
      <trkpt lat="46.5704" lon="-0.77681">
        <ele>50</ele>
        <time>2019-03-05T10:45:49Z</time>
      </trkpt>
      <trkpt lat="46.57037" lon="-0.77667">
        <ele>50</ele>
        <time>2019-03-05T10:46:49Z</time>
      </trkpt>
      <trkpt lat="46.57037" lon="-0.77653">
        <ele>50</ele>
        <time>2019-03-05T10:47:49Z</time>
      </trkpt>
      <trkpt lat="46.57042" lon="-0.77628">
        <ele>51</ele>
        <time>2019-03-05T10:48:49Z</time>
      </trkpt>
      <trkpt lat="46.57061" lon="-0.77582">
        <ele>51</ele>
        <time>2019-03-05T10:49:49Z</time>
      </trkpt>
      <trkpt lat="46.57082" lon="-0.77546">
        <ele>51</ele>
        <time>2019-03-05T10:50:49Z</time>
      </trkpt>
      <trkpt lat="46.57112" lon="-0.77502">
        <ele>53</ele>
        <time>2019-03-05T10:51:49Z</time>
      </trkpt>
      <trkpt lat="46.57125" lon="-0.77489">
        <ele>54</ele>
        <time>2019-03-05T10:52:49Z</time>
      </trkpt>
      <trkpt lat="46.57155" lon="-0.77465">
        <ele>55</ele>
        <time>2019-03-05T10:53:49Z</time>
      </trkpt>
      <trkpt lat="46.57172" lon="-0.77443">
        <ele>55</ele>
        <time>2019-03-05T10:54:49Z</time>
      </trkpt>
      <trkpt lat="46.57179" lon="-0.77445">
        <ele>56</ele>
        <time>2019-03-05T10:55:49Z</time>
      </trkpt>
      <trkpt lat="46.57225" lon="-0.7749">
        <ele>63</ele>
        <time>2019-03-05T10:56:49Z</time>
      </trkpt>
      <trkpt lat="46.57247" lon="-0.77502">
        <ele>67</ele>
        <time>2019-03-05T10:57:49Z</time>
      </trkpt>
      <trkpt lat="46.57269" lon="-0.77509">
        <ele>68</ele>
        <time>2019-03-05T10:58:49Z</time>
      </trkpt>
      <trkpt lat="46.57305" lon="-0.77483">
        <ele>69</ele>
        <time>2019-03-05T10:59:49Z</time>
      </trkpt>
      <trkpt lat="46.57337" lon="-0.77471">
        <ele>70</ele>
        <time>2019-03-05T11:00:49Z</time>
      </trkpt>
      <trkpt lat="46.57347" lon="-0.77462">
        <ele>70</ele>
        <time>2019-03-05T11:01:49Z</time>
      </trkpt>
      <trkpt lat="46.57373" lon="-0.77426">
        <ele>69</ele>
        <time>2019-03-05T11:02:49Z</time>
      </trkpt>
      <trkpt lat="46.57395" lon="-0.77409">
        <ele>70</ele>
        <time>2019-03-05T11:03:49Z</time>
      </trkpt>
      <trkpt lat="46.57369" lon="-0.77408">
        <ele>67</ele>
        <time>2019-03-05T11:04:49Z</time>
      </trkpt>
      <trkpt lat="46.5736" lon="-0.77401">
        <ele>66</ele>
        <time>2019-03-05T11:05:49Z</time>
      </trkpt>
      <trkpt lat="46.57349" lon="-0.77357">
        <ele>62</ele>
        <time>2019-03-05T11:06:49Z</time>
      </trkpt>
      <trkpt lat="46.57346" lon="-0.77331">
        <ele>60</ele>
        <time>2019-03-05T11:07:49Z</time>
      </trkpt>
      <trkpt lat="46.57346" lon="-0.77297">
        <ele>59</ele>
        <time>2019-03-05T11:08:49Z</time>
      </trkpt>
      <trkpt lat="46.57341" lon="-0.77267">
        <ele>59</ele>
        <time>2019-03-05T11:09:49Z</time>
      </trkpt>
      <trkpt lat="46.57332" lon="-0.77251">
        <ele>58</ele>
        <time>2019-03-05T11:10:49Z</time>
      </trkpt>
      <trkpt lat="46.5732" lon="-0.77233">
        <ele>59</ele>
        <time>2019-03-05T11:11:49Z</time>
      </trkpt>
      <trkpt lat="46.57292" lon="-0.77202">
        <ele>60</ele>
        <time>2019-03-05T11:12:49Z</time>
      </trkpt>
      <trkpt lat="46.57302" lon="-0.77204">
        <ele>61</ele>
        <time>2019-03-05T11:13:49Z</time>
      </trkpt>
      <trkpt lat="46.57307" lon="-0.77202">
        <ele>61</ele>
        <time>2019-03-05T11:14:49Z</time>
      </trkpt>
      <trkpt lat="46.57273" lon="-0.77162">
        <ele>62</ele>
        <time>2019-03-05T11:15:49Z</time>
      </trkpt>
      <trkpt lat="46.57269" lon="-0.77155">
        <ele>63</ele>
        <time>2019-03-05T11:16:49Z</time>
      </trkpt>
      <trkpt lat="46.57261" lon="-0.77133">
        <ele>64</ele>
        <time>2019-03-05T11:17:49Z</time>
      </trkpt>
      <trkpt lat="46.57253" lon="-0.7712">
        <ele>65</ele>
        <time>2019-03-05T11:18:49Z</time>
      </trkpt>
      <trkpt lat="46.57259" lon="-0.77098">
        <ele>68</ele>
        <time>2019-03-05T11:19:49Z</time>
      </trkpt>
      <trkpt lat="46.5726" lon="-0.77084">
        <ele>69</ele>
        <time>2019-03-05T11:20:49Z</time>
      </trkpt>
      <trkpt lat="46.57248" lon="-0.77086">
        <ele>69</ele>
        <time>2019-03-05T11:21:49Z</time>
      </trkpt>
      <trkpt lat="46.57213" lon="-0.77062">
        <ele>69</ele>
        <time>2019-03-05T11:22:49Z</time>
      </trkpt>
      <trkpt lat="46.57185" lon="-0.77039">
        <ele>69</ele>
        <time>2019-03-05T11:23:49Z</time>
      </trkpt>
      <trkpt lat="46.57185" lon="-0.77041">
        <ele>69</ele>
        <time>2019-03-05T11:24:49Z</time>
      </trkpt>
      <trkpt lat="46.57167" lon="-0.77053">
        <ele>68</ele>
        <time>2019-03-05T11:25:49Z</time>
      </trkpt>
      <trkpt lat="46.57169" lon="-0.77056">
        <ele>68</ele>
        <time>2019-03-05T11:26:49Z</time>
      </trkpt>
      <trkpt lat="46.57167" lon="-0.77061">
        <ele>68</ele>
        <time>2019-03-05T11:27:49Z</time>
      </trkpt>
      <trkpt lat="46.57163" lon="-0.77056">
        <ele>68</ele>
        <time>2019-03-05T11:28:49Z</time>
      </trkpt>
      <trkpt lat="46.57154" lon="-0.77056">
        <ele>67</ele>
        <time>2019-03-05T11:29:49Z</time>
      </trkpt>
      <trkpt lat="46.57148" lon="-0.77062">
        <ele>66</ele>
        <time>2019-03-05T11:30:49Z</time>
      </trkpt>
      <trkpt lat="46.57132" lon="-0.77057">
        <ele>65</ele>
        <time>2019-03-05T11:31:49Z</time>
      </trkpt>
      <trkpt lat="46.57122" lon="-0.77063">
        <ele>64</ele>
        <time>2019-03-05T11:32:49Z</time>
      </trkpt>
      <trkpt lat="46.571" lon="-0.77063">
        <ele>62</ele>
        <time>2019-03-05T11:33:49Z</time>
      </trkpt>
      <trkpt lat="46.57072" lon="-0.77054">
        <ele>61</ele>
        <time>2019-03-05T11:34:49Z</time>
      </trkpt>
      <trkpt lat="46.57071" lon="-0.77068">
        <ele>60</ele>
        <time>2019-03-05T11:35:49Z</time>
      </trkpt>
      <trkpt lat="46.57072" lon="-0.7708">
        <ele>59</ele>
        <time>2019-03-05T11:36:49Z</time>
      </trkpt>
      <trkpt lat="46.57076" lon="-0.77088">
        <ele>59</ele>
        <time>2019-03-05T11:37:49Z</time>
      </trkpt>
      <trkpt lat="46.57095" lon="-0.77114">
        <ele>58</ele>
        <time>2019-03-05T11:38:49Z</time>
      </trkpt>
      <trkpt lat="46.57102" lon="-0.7713">
        <ele>57</ele>
        <time>2019-03-05T11:39:49Z</time>
      </trkpt>
      <trkpt lat="46.57106" lon="-0.77132">
        <ele>57</ele>
        <time>2019-03-05T11:40:49Z</time>
      </trkpt>
      <trkpt lat="46.57113" lon="-0.77144">
        <ele>57</ele>
        <time>2019-03-05T11:41:49Z</time>
      </trkpt>
      <trkpt lat="46.57119" lon="-0.77216">
        <ele>56</ele>
        <time>2019-03-05T11:42:49Z</time>
      </trkpt>
      <trkpt lat="46.57106" lon="-0.77219">
        <ele>56</ele>
        <time>2019-03-05T11:43:49Z</time>
      </trkpt>
      <trkpt lat="46.57072" lon="-0.77239">
        <ele>57</ele>
        <time>2019-03-05T11:44:49Z</time>
      </trkpt>
      <trkpt lat="46.57053" lon="-0.77246">
        <ele>58</ele>
        <time>2019-03-05T11:45:49Z</time>
      </trkpt>
      <trkpt lat="46.5701" lon="-0.77258">
        <ele>59</ele>
        <time>2019-03-05T11:46:49Z</time>
      </trkpt>
      <trkpt lat="46.56993" lon="-0.7727">
        <ele>60</ele>
        <time>2019-03-05T11:47:49Z</time>
      </trkpt>
      <trkpt lat="46.56976" lon="-0.77284">
        <ele>62</ele>
        <time>2019-03-05T11:48:49Z</time>
      </trkpt>
      <trkpt lat="46.56968" lon="-0.77295">
        <ele>63</ele>
        <time>2019-03-05T11:49:49Z</time>
      </trkpt>
      <trkpt lat="46.56945" lon="-0.77371">
        <ele>69</ele>
        <time>2019-03-05T11:50:49Z</time>
      </trkpt>
      <trkpt lat="46.56935" lon="-0.77424">
        <ele>71</ele>
        <time>2019-03-05T11:51:49Z</time>
      </trkpt>
      <trkpt lat="46.56932" lon="-0.7745">
        <ele>71</ele>
        <time>2019-03-05T11:52:49Z</time>
      </trkpt>
      <trkpt lat="46.56924" lon="-0.77463">
        <ele>71</ele>
        <time>2019-03-05T11:53:49Z</time>
      </trkpt>
      <trkpt lat="46.56918" lon="-0.77469">
        <ele>72</ele>
        <time>2019-03-05T11:54:49Z</time>
      </trkpt>
      <trkpt lat="46.56909" lon="-0.77469">
        <ele>72</ele>
        <time>2019-03-05T11:55:49Z</time>
      </trkpt>
      <trkpt lat="46.56857" lon="-0.77442">
        <ele>72</ele>
        <time>2019-03-05T11:56:49Z</time>
      </trkpt>
      <trkpt lat="46.56837" lon="-0.77429">
        <ele>73</ele>
        <time>2019-03-05T11:57:49Z</time>
      </trkpt>
      <trkpt lat="46.56811" lon="-0.77404">
        <ele>73</ele>
        <time>2019-03-05T11:58:49Z</time>
      </trkpt>
      <trkpt lat="46.56766" lon="-0.77344">
        <ele>73</ele>
        <time>2019-03-05T11:59:49Z</time>
      </trkpt>
      <trkpt lat="46.56751" lon="-0.77313">
        <ele>73</ele>
        <time>2019-03-05T12:00:49Z</time>
      </trkpt>
      <trkpt lat="46.56729" lon="-0.77241">
        <ele>72</ele>
        <time>2019-03-05T12:01:49Z</time>
      </trkpt>
      <trkpt lat="46.56725" lon="-0.77248">
        <ele>72</ele>
        <time>2019-03-05T12:02:49Z</time>
      </trkpt>
      <trkpt lat="46.56719" lon="-0.77252">
        <ele>72</ele>
        <time>2019-03-05T12:03:49Z</time>
      </trkpt>
      <trkpt lat="46.56676" lon="-0.77262">
        <ele>71</ele>
        <time>2019-03-05T12:04:49Z</time>
      </trkpt>
      <trkpt lat="46.56623" lon="-0.77266">
        <ele>70</ele>
        <time>2019-03-05T12:05:49Z</time>
      </trkpt>
      <trkpt lat="46.56576" lon="-0.77263">
        <ele>70</ele>
        <time>2019-03-05T12:06:49Z</time>
      </trkpt>
      <trkpt lat="46.5648" lon="-0.77253">
        <ele>67</ele>
        <time>2019-03-05T12:07:49Z</time>
      </trkpt>
      <trkpt lat="46.56451" lon="-0.7726">
        <ele>66</ele>
        <time>2019-03-05T12:08:49Z</time>
      </trkpt>
      <trkpt lat="46.56361" lon="-0.77313">
        <ele>64</ele>
        <time>2019-03-05T12:09:49Z</time>
      </trkpt>
      <trkpt lat="46.56342" lon="-0.77318">
        <ele>63</ele>
        <time>2019-03-05T12:10:49Z</time>
      </trkpt>
      <trkpt lat="46.56328" lon="-0.77319">
        <ele>63</ele>
        <time>2019-03-05T12:11:49Z</time>
      </trkpt>
      <trkpt lat="46.56227" lon="-0.77298">
        <ele>63</ele>
        <time>2019-03-05T12:12:49Z</time>
      </trkpt>
      <trkpt lat="46.56188" lon="-0.77287">
        <ele>66</ele>
        <time>2019-03-05T12:13:49Z</time>
      </trkpt>
      <trkpt lat="46.56173" lon="-0.7728">
        <ele>67</ele>
        <time>2019-03-05T12:14:49Z</time>
      </trkpt>
      <trkpt lat="46.56059" lon="-0.77199">
        <ele>67</ele>
        <time>2019-03-05T12:15:49Z</time>
      </trkpt>
      <trkpt lat="46.56032" lon="-0.77182">
        <ele>67</ele>
        <time>2019-03-05T12:16:49Z</time>
      </trkpt>
      <trkpt lat="46.56018" lon="-0.77178">
        <ele>66</ele>
        <time>2019-03-05T12:17:49Z</time>
      </trkpt>
      <trkpt lat="46.55972" lon="-0.77178">
        <ele>66</ele>
        <time>2019-03-05T12:18:49Z</time>
      </trkpt>
      <trkpt lat="46.55956" lon="-0.77175">
        <ele>67</ele>
        <time>2019-03-05T12:19:49Z</time>
      </trkpt>
      <trkpt lat="46.55937" lon="-0.77167">
        <ele>67</ele>
        <time>2019-03-05T12:20:49Z</time>
      </trkpt>
      <trkpt lat="46.55907" lon="-0.77143">
        <ele>69</ele>
        <time>2019-03-05T12:21:49Z</time>
      </trkpt>
      <trkpt lat="46.55887" lon="-0.77133">
        <ele>69</ele>
        <time>2019-03-05T12:22:49Z</time>
      </trkpt>
      <trkpt lat="46.55864" lon="-0.77125">
        <ele>69</ele>
        <time>2019-03-05T12:23:49Z</time>
      </trkpt>
      <trkpt lat="46.55839" lon="-0.77107">
        <ele>69</ele>
        <time>2019-03-05T12:24:49Z</time>
      </trkpt>
      <trkpt lat="46.55785" lon="-0.77098">
        <ele>68</ele>
        <time>2019-03-05T12:25:49Z</time>
      </trkpt>
      <trkpt lat="46.55752" lon="-0.77084">
        <ele>68</ele>
        <time>2019-03-05T12:26:49Z</time>
      </trkpt>
      <trkpt lat="46.55633" lon="-0.77018">
        <ele>64</ele>
        <time>2019-03-05T12:27:49Z</time>
      </trkpt>
      <trkpt lat="46.55602" lon="-0.77014">
        <ele>64</ele>
        <time>2019-03-05T12:28:49Z</time>
      </trkpt>
      <trkpt lat="46.55569" lon="-0.77016">
        <ele>64</ele>
        <time>2019-03-05T12:29:49Z</time>
      </trkpt>
      <trkpt lat="46.5555" lon="-0.7701">
        <ele>66</ele>
        <time>2019-03-05T12:30:49Z</time>
      </trkpt>
      <trkpt lat="46.55535" lon="-0.77043">
        <ele>66</ele>
        <time>2019-03-05T12:31:49Z</time>
      </trkpt>
      <trkpt lat="46.55459" lon="-0.77065">
        <ele>71</ele>
        <time>2019-03-05T12:32:49Z</time>
      </trkpt>
      <trkpt lat="46.5542" lon="-0.77061">
        <ele>74</ele>
        <time>2019-03-05T12:33:49Z</time>
      </trkpt>
      <trkpt lat="46.55405" lon="-0.77064">
        <ele>75</ele>
        <time>2019-03-05T12:34:49Z</time>
      </trkpt>
      <trkpt lat="46.5539" lon="-0.77059">
        <ele>76</ele>
        <time>2019-03-05T12:35:49Z</time>
      </trkpt>
      <trkpt lat="46.55359" lon="-0.77077">
        <ele>75</ele>
        <time>2019-03-05T12:36:49Z</time>
      </trkpt>
      <trkpt lat="46.55293" lon="-0.77084">
        <ele>76</ele>
        <time>2019-03-05T12:37:49Z</time>
      </trkpt>
      <trkpt lat="46.55259" lon="-0.77099">
        <ele>76</ele>
        <time>2019-03-05T12:38:49Z</time>
      </trkpt>
      <trkpt lat="46.55211" lon="-0.77098">
        <ele>76</ele>
        <time>2019-03-05T12:39:49Z</time>
      </trkpt>
      <trkpt lat="46.5518" lon="-0.77112">
        <ele>76</ele>
        <time>2019-03-05T12:40:49Z</time>
      </trkpt>
      <trkpt lat="46.55155" lon="-0.77107">
        <ele>77</ele>
        <time>2019-03-05T12:41:49Z</time>
      </trkpt>
      <trkpt lat="46.55111" lon="-0.77116">
        <ele>77</ele>
        <time>2019-03-05T12:42:49Z</time>
      </trkpt>
      <trkpt lat="46.5508" lon="-0.77104">
        <ele>77</ele>
        <time>2019-03-05T12:43:49Z</time>
      </trkpt>
      <trkpt lat="46.55028" lon="-0.77129">
        <ele>76</ele>
        <time>2019-03-05T12:44:49Z</time>
      </trkpt>
      <trkpt lat="46.55" lon="-0.7713">
        <ele>75</ele>
        <time>2019-03-05T12:45:49Z</time>
      </trkpt>
      <trkpt lat="46.54936" lon="-0.77177">
        <ele>72</ele>
        <time>2019-03-05T12:46:49Z</time>
      </trkpt>
      <trkpt lat="46.54889" lon="-0.77197">
        <ele>71</ele>
        <time>2019-03-05T12:47:49Z</time>
      </trkpt>
      <trkpt lat="46.5484" lon="-0.77201">
        <ele>70</ele>
        <time>2019-03-05T12:48:49Z</time>
      </trkpt>
      <trkpt lat="46.54779" lon="-0.77196">
        <ele>73</ele>
        <time>2019-03-05T12:49:49Z</time>
      </trkpt>
      <trkpt lat="46.54687" lon="-0.77198">
        <ele>79</ele>
        <time>2019-03-05T12:50:49Z</time>
      </trkpt>
      <trkpt lat="46.54613" lon="-0.77218">
        <ele>85</ele>
        <time>2019-03-05T12:51:49Z</time>
      </trkpt>
      <trkpt lat="46.54586" lon="-0.77234">
        <ele>88</ele>
        <time>2019-03-05T12:52:49Z</time>
      </trkpt>
      <trkpt lat="46.54586" lon="-0.77234">
        <ele>88</ele>
        <time>2019-03-05T12:53:49Z</time>
      </trkpt>
      <trkpt lat="46.5462" lon="-0.77307">
        <ele>89</ele>
        <time>2019-03-05T12:54:49Z</time>
      </trkpt>
      <trkpt lat="46.54631" lon="-0.77409">
        <ele>91</ele>
        <time>2019-03-05T12:55:49Z</time>
      </trkpt>
      <trkpt lat="46.54653" lon="-0.77495">
        <ele>90</ele>
        <time>2019-03-05T12:56:49Z</time>
      </trkpt>
      <trkpt lat="46.54654" lon="-0.77545">
        <ele>89</ele>
        <time>2019-03-05T12:57:49Z</time>
      </trkpt>
      <trkpt lat="46.5465" lon="-0.77604">
        <ele>89</ele>
        <time>2019-03-05T12:58:49Z</time>
      </trkpt>
      <trkpt lat="46.54634" lon="-0.77662">
        <ele>87</ele>
        <time>2019-03-05T12:59:49Z</time>
      </trkpt>
      <trkpt lat="46.54626" lon="-0.77738">
        <ele>85</ele>
        <time>2019-03-05T13:00:49Z</time>
      </trkpt>
      <trkpt lat="46.54626" lon="-0.77738">
        <ele>85</ele>
        <time>2019-03-05T13:01:49Z</time>
      </trkpt>
      <trkpt lat="46.5459" lon="-0.77795">
        <ele>83</ele>
        <time>2019-03-05T13:02:49Z</time>
      </trkpt>
      <trkpt lat="46.54557" lon="-0.77909">
        <ele>79</ele>
        <time>2019-03-05T13:03:49Z</time>
      </trkpt>
      <trkpt lat="46.54556" lon="-0.77978">
        <ele>77</ele>
        <time>2019-03-05T13:04:49Z</time>
      </trkpt>
      <trkpt lat="46.54556" lon="-0.77978">
        <ele>77</ele>
        <time>2019-03-05T13:05:49Z</time>
      </trkpt>
      <trkpt lat="46.5461" lon="-0.78153">
        <ele>53</ele>
        <time>2019-03-05T13:06:49Z</time>
      </trkpt>
      <trkpt lat="46.54611" lon="-0.78153">
        <ele>53</ele>
        <time>2019-03-05T13:07:49Z</time>
      </trkpt>
      <trkpt lat="46.54611" lon="-0.78157">
        <ele>53</ele>
        <time>2019-03-05T13:08:49Z</time>
      </trkpt>
      <trkpt lat="46.54555" lon="-0.78188">
        <ele>54</ele>
        <time>2019-03-05T13:09:49Z</time>
      </trkpt>
      <trkpt lat="46.54515" lon="-0.78213">
        <ele>54</ele>
        <time>2019-03-05T13:10:49Z</time>
      </trkpt>
      <trkpt lat="46.54491" lon="-0.78215">
        <ele>54</ele>
        <time>2019-03-05T13:11:49Z</time>
      </trkpt>
      <trkpt lat="46.54471" lon="-0.78214">
        <ele>54</ele>
        <time>2019-03-05T13:12:49Z</time>
      </trkpt>
      <trkpt lat="46.5444" lon="-0.78187">
        <ele>54</ele>
        <time>2019-03-05T13:13:49Z</time>
      </trkpt>
      <trkpt lat="46.54407" lon="-0.7812">
        <ele>53</ele>
        <time>2019-03-05T13:14:49Z</time>
      </trkpt>
      <trkpt lat="46.5437" lon="-0.78124">
        <ele>48</ele>
        <time>2019-03-05T13:15:49Z</time>
      </trkpt>
      <trkpt lat="46.5434" lon="-0.78124">
        <ele>45</ele>
        <time>2019-03-05T13:16:49Z</time>
      </trkpt>
      <trkpt lat="46.54321" lon="-0.78117">
        <ele>49</ele>
        <time>2019-03-05T13:17:49Z</time>
      </trkpt>
      <trkpt lat="46.54291" lon="-0.78102">
        <ele>62</ele>
        <time>2019-03-05T13:18:49Z</time>
      </trkpt>
      <trkpt lat="46.54285" lon="-0.78101">
        <ele>65</ele>
        <time>2019-03-05T13:19:49Z</time>
      </trkpt>
      <trkpt lat="46.54281" lon="-0.78103">
        <ele>67</ele>
        <time>2019-03-05T13:20:49Z</time>
      </trkpt>
      <trkpt lat="46.54277" lon="-0.78108">
        <ele>68</ele>
        <time>2019-03-05T13:21:49Z</time>
      </trkpt>
      <trkpt lat="46.54275" lon="-0.78115">
        <ele>69</ele>
        <time>2019-03-05T13:22:49Z</time>
      </trkpt>
      <trkpt lat="46.54276" lon="-0.78123">
        <ele>69</ele>
        <time>2019-03-05T13:23:49Z</time>
      </trkpt>
      <trkpt lat="46.54284" lon="-0.78167">
        <ele>65</ele>
        <time>2019-03-05T13:24:49Z</time>
      </trkpt>
      <trkpt lat="46.54285" lon="-0.78208">
        <ele>67</ele>
        <time>2019-03-05T13:25:49Z</time>
      </trkpt>
      <trkpt lat="46.54284" lon="-0.7822">
        <ele>68</ele>
        <time>2019-03-05T13:26:49Z</time>
      </trkpt>
      <trkpt lat="46.54279" lon="-0.78241">
        <ele>71</ele>
        <time>2019-03-05T13:27:49Z</time>
      </trkpt>
      <trkpt lat="46.54275" lon="-0.78252">
        <ele>73</ele>
        <time>2019-03-05T13:28:49Z</time>
      </trkpt>
      <trkpt lat="46.54262" lon="-0.78267">
        <ele>79</ele>
        <time>2019-03-05T13:29:49Z</time>
      </trkpt>
      <trkpt lat="46.54259" lon="-0.78275">
        <ele>80</ele>
        <time>2019-03-05T13:30:49Z</time>
      </trkpt>
      <trkpt lat="46.54259" lon="-0.78285">
        <ele>81</ele>
        <time>2019-03-05T13:31:49Z</time>
      </trkpt>
      <trkpt lat="46.54269" lon="-0.78323">
        <ele>82</ele>
        <time>2019-03-05T13:32:49Z</time>
      </trkpt>
      <trkpt lat="46.5427" lon="-0.78335">
        <ele>84</ele>
        <time>2019-03-05T13:33:49Z</time>
      </trkpt>
      <trkpt lat="46.54269" lon="-0.7834">
        <ele>85</ele>
        <time>2019-03-05T13:34:49Z</time>
      </trkpt>
      <trkpt lat="46.54273" lon="-0.78342">
        <ele>84</ele>
        <time>2019-03-05T13:35:49Z</time>
      </trkpt>
      <trkpt lat="46.54286" lon="-0.78378">
        <ele>91</ele>
        <time>2019-03-05T13:36:49Z</time>
      </trkpt>
      <trkpt lat="46.54305" lon="-0.78392">
        <ele>93</ele>
        <time>2019-03-05T13:37:49Z</time>
      </trkpt>
      <trkpt lat="46.54358" lon="-0.78385">
        <ele>84</ele>
        <time>2019-03-05T13:38:49Z</time>
      </trkpt>
      <trkpt lat="46.54399" lon="-0.78405">
        <ele>84</ele>
        <time>2019-03-05T13:39:49Z</time>
      </trkpt>
      <trkpt lat="46.54457" lon="-0.78386">
        <ele>72</ele>
        <time>2019-03-05T13:40:49Z</time>
      </trkpt>
      <trkpt lat="46.54567" lon="-0.78394">
        <ele>60</ele>
        <time>2019-03-05T13:41:49Z</time>
      </trkpt>
      <trkpt lat="46.54565" lon="-0.78455">
        <ele>67</ele>
        <time>2019-03-05T13:42:49Z</time>
      </trkpt>
      <trkpt lat="46.54481" lon="-0.78631">
        <ele>82</ele>
        <time>2019-03-05T13:43:49Z</time>
      </trkpt>
      <trkpt lat="46.54481" lon="-0.78631">
        <ele>82</ele>
        <time>2019-03-05T13:44:49Z</time>
      </trkpt>
      <trkpt lat="46.54355" lon="-0.78632">
        <ele>100</ele>
        <time>2019-03-05T13:45:49Z</time>
      </trkpt>
      <trkpt lat="46.54311" lon="-0.78649">
        <ele>101</ele>
        <time>2019-03-05T13:46:49Z</time>
      </trkpt>
      <trkpt lat="46.54236" lon="-0.78693">
        <ele>104</ele>
        <time>2019-03-05T13:47:49Z</time>
      </trkpt>
      <trkpt lat="46.54191" lon="-0.7871">
        <ele>105</ele>
        <time>2019-03-05T13:48:49Z</time>
      </trkpt>
      <trkpt lat="46.54143" lon="-0.78695">
        <ele>106</ele>
        <time>2019-03-05T13:49:49Z</time>
      </trkpt>
      <trkpt lat="46.54088" lon="-0.78766">
        <ele>105</ele>
        <time>2019-03-05T13:50:49Z</time>
      </trkpt>
      <trkpt lat="46.54022" lon="-0.78822">
        <ele>106</ele>
        <time>2019-03-05T13:51:49Z</time>
      </trkpt>
      <trkpt lat="46.54022" lon="-0.78822">
        <ele>106</ele>
        <time>2019-03-05T13:52:49Z</time>
      </trkpt>
      <trkpt lat="46.53985" lon="-0.78947">
        <ele>106</ele>
        <time>2019-03-05T13:53:49Z</time>
      </trkpt>
      <trkpt lat="46.53891" lon="-0.79117">
        <ele>113</ele>
        <time>2019-03-05T13:54:49Z</time>
      </trkpt>
      <trkpt lat="46.53886" lon="-0.79125">
        <ele>113</ele>
        <time>2019-03-05T13:55:49Z</time>
      </trkpt>
      <trkpt lat="46.53843" lon="-0.79123">
        <ele>111</ele>
        <time>2019-03-05T13:56:49Z</time>
      </trkpt>
      <trkpt lat="46.53637" lon="-0.79102">
        <ele>104</ele>
        <time>2019-03-05T13:57:49Z</time>
      </trkpt>
      <trkpt lat="46.53476" lon="-0.79094">
        <ele>110</ele>
        <time>2019-03-05T13:58:49Z</time>
      </trkpt>
      <trkpt lat="46.53289" lon="-0.7907">
        <ele>107</ele>
        <time>2019-03-05T13:59:49Z</time>
      </trkpt>
      <trkpt lat="46.53041" lon="-0.79161">
        <ele>115</ele>
        <time>2019-03-05T14:00:49Z</time>
      </trkpt>
      <trkpt lat="46.53042" lon="-0.79161">
        <ele>115</ele>
        <time>2019-03-05T14:01:49Z</time>
      </trkpt>
      <trkpt lat="46.52943" lon="-0.78578">
        <ele>102</ele>
        <time>2019-03-05T14:02:49Z</time>
      </trkpt>
      <trkpt lat="46.52943" lon="-0.78579">
        <ele>102</ele>
        <time>2019-03-05T14:03:49Z</time>
      </trkpt>
      <trkpt lat="46.53007" lon="-0.78553">
        <ele>98</ele>
        <time>2019-03-05T14:04:49Z</time>
      </trkpt>
      <trkpt lat="46.5302" lon="-0.7855">
        <ele>98</ele>
        <time>2019-03-05T14:05:49Z</time>
      </trkpt>
      <trkpt lat="46.53032" lon="-0.78551">
        <ele>97</ele>
        <time>2019-03-05T14:06:49Z</time>
      </trkpt>
      <trkpt lat="46.53063" lon="-0.78563">
        <ele>97</ele>
        <time>2019-03-05T14:07:49Z</time>
      </trkpt>
      <trkpt lat="46.53075" lon="-0.78566">
        <ele>97</ele>
        <time>2019-03-05T14:08:49Z</time>
      </trkpt>
      <trkpt lat="46.53085" lon="-0.78564">
        <ele>96</ele>
        <time>2019-03-05T14:09:49Z</time>
      </trkpt>
      <trkpt lat="46.53095" lon="-0.78559">
        <ele>96</ele>
        <time>2019-03-05T14:10:49Z</time>
      </trkpt>
      <trkpt lat="46.53125" lon="-0.78537">
        <ele>95</ele>
        <time>2019-03-05T14:11:49Z</time>
      </trkpt>
      <trkpt lat="46.53156" lon="-0.78508">
        <ele>95</ele>
        <time>2019-03-05T14:12:49Z</time>
      </trkpt>
      <trkpt lat="46.53156" lon="-0.78506">
        <ele>95</ele>
        <time>2019-03-05T14:13:49Z</time>
      </trkpt>
      <trkpt lat="46.53131" lon="-0.78487">
        <ele>94</ele>
        <time>2019-03-05T14:14:49Z</time>
      </trkpt>
      <trkpt lat="46.5312" lon="-0.78469">
        <ele>93</ele>
        <time>2019-03-05T14:15:49Z</time>
      </trkpt>
      <trkpt lat="46.53092" lon="-0.78449">
        <ele>92</ele>
        <time>2019-03-05T14:16:49Z</time>
      </trkpt>
      <trkpt lat="46.53066" lon="-0.78405">
        <ele>91</ele>
        <time>2019-03-05T14:17:49Z</time>
      </trkpt>
      <trkpt lat="46.53036" lon="-0.78305">
        <ele>92</ele>
        <time>2019-03-05T14:18:49Z</time>
      </trkpt>
      <trkpt lat="46.53019" lon="-0.78221">
        <ele>92</ele>
        <time>2019-03-05T14:19:49Z</time>
      </trkpt>
      <trkpt lat="46.52977" lon="-0.78126">
        <ele>89</ele>
        <time>2019-03-05T14:20:49Z</time>
      </trkpt>
      <trkpt lat="46.52951" lon="-0.78051">
        <ele>88</ele>
        <time>2019-03-05T14:21:49Z</time>
      </trkpt>
      <trkpt lat="46.52962" lon="-0.77999">
        <ele>86</ele>
        <time>2019-03-05T14:22:49Z</time>
      </trkpt>
      <trkpt lat="46.52964" lon="-0.77933">
        <ele>87</ele>
        <time>2019-03-05T14:23:49Z</time>
      </trkpt>
      <trkpt lat="46.52971" lon="-0.77846">
        <ele>93</ele>
        <time>2019-03-05T14:24:49Z</time>
      </trkpt>
      <trkpt lat="46.52956" lon="-0.77768">
        <ele>95</ele>
        <time>2019-03-05T14:25:49Z</time>
      </trkpt>
      <trkpt lat="46.52957" lon="-0.77767">
        <ele>95</ele>
        <time>2019-03-05T14:26:49Z</time>
      </trkpt>
      <trkpt lat="46.52979" lon="-0.77738">
        <ele>95</ele>
        <time>2019-03-05T14:27:49Z</time>
      </trkpt>
      <trkpt lat="46.5301" lon="-0.77668">
        <ele>94</ele>
        <time>2019-03-05T14:28:49Z</time>
      </trkpt>
      <trkpt lat="46.53046" lon="-0.77609">
        <ele>91</ele>
        <time>2019-03-05T14:29:49Z</time>
      </trkpt>
      <trkpt lat="46.53046" lon="-0.77609">
        <ele>91</ele>
        <time>2019-03-05T14:30:49Z</time>
      </trkpt>
      <trkpt lat="46.53125" lon="-0.77522">
        <ele>81</ele>
        <time>2019-03-05T14:31:49Z</time>
      </trkpt>
      <trkpt lat="46.53192" lon="-0.7743">
        <ele>70</ele>
        <time>2019-03-05T14:32:49Z</time>
      </trkpt>
      <trkpt lat="46.53191" lon="-0.77429">
        <ele>70</ele>
        <time>2019-03-05T14:33:49Z</time>
      </trkpt>
      <trkpt lat="46.53211" lon="-0.77411">
        <ele>66</ele>
        <time>2019-03-05T14:34:49Z</time>
      </trkpt>
      <trkpt lat="46.53237" lon="-0.77377">
        <ele>58</ele>
        <time>2019-03-05T14:35:49Z</time>
      </trkpt>
      <trkpt lat="46.53244" lon="-0.77397">
        <ele>60</ele>
        <time>2019-03-05T14:36:49Z</time>
      </trkpt>
      <trkpt lat="46.53253" lon="-0.77409">
        <ele>60</ele>
        <time>2019-03-05T14:37:49Z</time>
      </trkpt>
      <trkpt lat="46.53256" lon="-0.77417">
        <ele>60</ele>
        <time>2019-03-05T14:38:49Z</time>
      </trkpt>
      <trkpt lat="46.53256" lon="-0.7743">
        <ele>60</ele>
        <time>2019-03-05T14:39:49Z</time>
      </trkpt>
      <trkpt lat="46.53241" lon="-0.77522">
        <ele>62</ele>
        <time>2019-03-05T14:40:49Z</time>
      </trkpt>
      <trkpt lat="46.53244" lon="-0.77532">
        <ele>62</ele>
        <time>2019-03-05T14:41:49Z</time>
      </trkpt>
      <trkpt lat="46.53255" lon="-0.77537">
        <ele>61</ele>
        <time>2019-03-05T14:42:49Z</time>
      </trkpt>
      <trkpt lat="46.53265" lon="-0.77534">
        <ele>62</ele>
        <time>2019-03-05T14:43:49Z</time>
      </trkpt>
      <trkpt lat="46.53274" lon="-0.77526">
        <ele>62</ele>
        <time>2019-03-05T14:44:49Z</time>
      </trkpt>
      <trkpt lat="46.5328" lon="-0.77515">
        <ele>62</ele>
        <time>2019-03-05T14:45:49Z</time>
      </trkpt>
      <trkpt lat="46.53284" lon="-0.77514">
        <ele>63</ele>
        <time>2019-03-05T14:46:49Z</time>
      </trkpt>
      <trkpt lat="46.53317" lon="-0.7744">
        <ele>56</ele>
        <time>2019-03-05T14:47:49Z</time>
      </trkpt>
      <trkpt lat="46.53341" lon="-0.77407">
        <ele>50</ele>
        <time>2019-03-05T14:48:49Z</time>
      </trkpt>
      <trkpt lat="46.53375" lon="-0.77365">
        <ele>50</ele>
        <time>2019-03-05T14:49:49Z</time>
      </trkpt>
      <trkpt lat="46.53381" lon="-0.7736">
        <ele>51</ele>
        <time>2019-03-05T14:50:49Z</time>
      </trkpt>
      <trkpt lat="46.53387" lon="-0.77359">
        <ele>52</ele>
        <time>2019-03-05T14:51:49Z</time>
      </trkpt>
      <trkpt lat="46.53396" lon="-0.77359">
        <ele>53</ele>
        <time>2019-03-05T14:52:49Z</time>
      </trkpt>
      <trkpt lat="46.53411" lon="-0.77369">
        <ele>53</ele>
        <time>2019-03-05T14:53:49Z</time>
      </trkpt>
      <trkpt lat="46.53419" lon="-0.77381">
        <ele>53</ele>
        <time>2019-03-05T14:54:49Z</time>
      </trkpt>
      <trkpt lat="46.53444" lon="-0.77428">
        <ele>53</ele>
        <time>2019-03-05T14:55:49Z</time>
      </trkpt>
      <trkpt lat="46.53461" lon="-0.77449">
        <ele>55</ele>
        <time>2019-03-05T14:56:49Z</time>
      </trkpt>
      <trkpt lat="46.53497" lon="-0.77479">
        <ele>56</ele>
        <time>2019-03-05T14:57:49Z</time>
      </trkpt>
      <trkpt lat="46.53501" lon="-0.77474">
        <ele>57</ele>
        <time>2019-03-05T14:58:49Z</time>
      </trkpt>
      <trkpt lat="46.5352" lon="-0.77481">
        <ele>57</ele>
        <time>2019-03-05T14:59:49Z</time>
      </trkpt>
      <trkpt lat="46.53543" lon="-0.77475">
        <ele>60</ele>
        <time>2019-03-05T15:00:49Z</time>
      </trkpt>
      <trkpt lat="46.53559" lon="-0.77455">
        <ele>63</ele>
        <time>2019-03-05T15:01:49Z</time>
      </trkpt>
      <trkpt lat="46.53572" lon="-0.77386">
        <ele>71</ele>
        <time>2019-03-05T15:02:49Z</time>
      </trkpt>
      <trkpt lat="46.53583" lon="-0.77362">
        <ele>73</ele>
        <time>2019-03-05T15:03:49Z</time>
      </trkpt>
      <trkpt lat="46.5359" lon="-0.77353">
        <ele>73</ele>
        <time>2019-03-05T15:04:49Z</time>
      </trkpt>
      <trkpt lat="46.53624" lon="-0.77345">
        <ele>74</ele>
        <time>2019-03-05T15:05:49Z</time>
      </trkpt>
      <trkpt lat="46.53628" lon="-0.77339">
        <ele>74</ele>
        <time>2019-03-05T15:06:49Z</time>
      </trkpt>
      <trkpt lat="46.53633" lon="-0.77321">
        <ele>76</ele>
        <time>2019-03-05T15:07:49Z</time>
      </trkpt>
      <trkpt lat="46.53624" lon="-0.77282">
        <ele>80</ele>
        <time>2019-03-05T15:08:49Z</time>
      </trkpt>
      <trkpt lat="46.53638" lon="-0.77252">
        <ele>83</ele>
        <time>2019-03-05T15:09:49Z</time>
      </trkpt>
      <trkpt lat="46.53659" lon="-0.77244">
        <ele>83</ele>
        <time>2019-03-05T15:10:49Z</time>
      </trkpt>
      <trkpt lat="46.53652" lon="-0.77225">
        <ele>84</ele>
        <time>2019-03-05T15:11:49Z</time>
      </trkpt>
      <trkpt lat="46.53644" lon="-0.77166">
        <ele>87</ele>
        <time>2019-03-05T15:12:49Z</time>
      </trkpt>
      <trkpt lat="46.53643" lon="-0.7711">
        <ele>90</ele>
        <time>2019-03-05T15:13:49Z</time>
      </trkpt>
      <trkpt lat="46.53651" lon="-0.77083">
        <ele>91</ele>
        <time>2019-03-05T15:14:49Z</time>
      </trkpt>
      <trkpt lat="46.53661" lon="-0.77055">
        <ele>92</ele>
        <time>2019-03-05T15:15:49Z</time>
      </trkpt>
      <trkpt lat="46.53711" lon="-0.76986">
        <ele>94</ele>
        <time>2019-03-05T15:16:49Z</time>
      </trkpt>
      <trkpt lat="46.53716" lon="-0.76977">
        <ele>94</ele>
        <time>2019-03-05T15:17:49Z</time>
      </trkpt>
      <trkpt lat="46.53724" lon="-0.76959">
        <ele>95</ele>
        <time>2019-03-05T15:18:49Z</time>
      </trkpt>
      <trkpt lat="46.53727" lon="-0.76947">
        <ele>95</ele>
        <time>2019-03-05T15:19:49Z</time>
      </trkpt>
      <trkpt lat="46.53728" lon="-0.76932">
        <ele>95</ele>
        <time>2019-03-05T15:20:49Z</time>
      </trkpt>
      <trkpt lat="46.53727" lon="-0.76917">
        <ele>95</ele>
        <time>2019-03-05T15:21:49Z</time>
      </trkpt>
      <trkpt lat="46.53723" lon="-0.76902">
        <ele>96</ele>
        <time>2019-03-05T15:22:49Z</time>
      </trkpt>
      <trkpt lat="46.53713" lon="-0.76891">
        <ele>97</ele>
        <time>2019-03-05T15:23:49Z</time>
      </trkpt>
      <trkpt lat="46.53696" lon="-0.76881">
        <ele>99</ele>
        <time>2019-03-05T15:24:49Z</time>
      </trkpt>
      <trkpt lat="46.53684" lon="-0.76865">
        <ele>101</ele>
        <time>2019-03-05T15:25:49Z</time>
      </trkpt>
      <trkpt lat="46.53667" lon="-0.76828">
        <ele>104</ele>
        <time>2019-03-05T15:26:49Z</time>
      </trkpt>
      <trkpt lat="46.53639" lon="-0.76825">
        <ele>105</ele>
        <time>2019-03-05T15:27:49Z</time>
      </trkpt>
      <trkpt lat="46.535" lon="-0.76859">
        <ele>104</ele>
        <time>2019-03-05T15:28:49Z</time>
      </trkpt>
      <trkpt lat="46.53451" lon="-0.76849">
        <ele>102</ele>
        <time>2019-03-05T15:29:49Z</time>
      </trkpt>
      <trkpt lat="46.53412" lon="-0.76837">
        <ele>101</ele>
        <time>2019-03-05T15:30:49Z</time>
      </trkpt>
      <trkpt lat="46.53383" lon="-0.76821">
        <ele>100</ele>
        <time>2019-03-05T15:31:49Z</time>
      </trkpt>
      <trkpt lat="46.53361" lon="-0.76795">
        <ele>99</ele>
        <time>2019-03-05T15:32:49Z</time>
      </trkpt>
      <trkpt lat="46.53339" lon="-0.76781">
        <ele>98</ele>
        <time>2019-03-05T15:33:49Z</time>
      </trkpt>
      <trkpt lat="46.53312" lon="-0.76771">
        <ele>96</ele>
        <time>2019-03-05T15:34:49Z</time>
      </trkpt>
      <trkpt lat="46.533" lon="-0.76756">
        <ele>95</ele>
        <time>2019-03-05T15:35:49Z</time>
      </trkpt>
      <trkpt lat="46.53247" lon="-0.76727">
        <ele>90</ele>
        <time>2019-03-05T15:36:49Z</time>
      </trkpt>
      <trkpt lat="46.53161" lon="-0.76691">
        <ele>85</ele>
        <time>2019-03-05T15:37:49Z</time>
      </trkpt>
      <trkpt lat="46.53081" lon="-0.76641">
        <ele>89</ele>
        <time>2019-03-05T15:38:49Z</time>
      </trkpt>
      <trkpt lat="46.52992" lon="-0.76542">
        <ele>90</ele>
        <time>2019-03-05T15:39:49Z</time>
      </trkpt>
      <trkpt lat="46.52972" lon="-0.76551">
        <ele>85</ele>
        <time>2019-03-05T15:40:49Z</time>
      </trkpt>
      <trkpt lat="46.52954" lon="-0.76568">
        <ele>82</ele>
        <time>2019-03-05T15:41:49Z</time>
      </trkpt>
      <trkpt lat="46.52943" lon="-0.76593">
        <ele>81</ele>
        <time>2019-03-05T15:42:49Z</time>
      </trkpt>
      <trkpt lat="46.52936" lon="-0.76625">
        <ele>79</ele>
        <time>2019-03-05T15:43:49Z</time>
      </trkpt>
      <trkpt lat="46.52933" lon="-0.76647">
        <ele>79</ele>
        <time>2019-03-05T15:44:49Z</time>
      </trkpt>
      <trkpt lat="46.52924" lon="-0.76661">
        <ele>78</ele>
        <time>2019-03-05T15:45:49Z</time>
      </trkpt>
      <trkpt lat="46.52902" lon="-0.7667">
        <ele>73</ele>
        <time>2019-03-05T15:46:49Z</time>
      </trkpt>
      <trkpt lat="46.52846" lon="-0.76686">
        <ele>62</ele>
        <time>2019-03-05T15:47:49Z</time>
      </trkpt>
      <trkpt lat="46.52822" lon="-0.76698">
        <ele>58</ele>
        <time>2019-03-05T15:48:49Z</time>
      </trkpt>
      <trkpt lat="46.5281" lon="-0.76716">
        <ele>57</ele>
        <time>2019-03-05T15:49:49Z</time>
      </trkpt>
      <trkpt lat="46.52802" lon="-0.76736">
        <ele>56</ele>
        <time>2019-03-05T15:50:49Z</time>
      </trkpt>
      <trkpt lat="46.52798" lon="-0.76756">
        <ele>55</ele>
        <time>2019-03-05T15:51:49Z</time>
      </trkpt>
      <trkpt lat="46.5279" lon="-0.76775">
        <ele>53</ele>
        <time>2019-03-05T15:52:49Z</time>
      </trkpt>
      <trkpt lat="46.52777" lon="-0.76793">
        <ele>52</ele>
        <time>2019-03-05T15:53:49Z</time>
      </trkpt>
      <trkpt lat="46.52773" lon="-0.76802">
        <ele>51</ele>
        <time>2019-03-05T15:54:49Z</time>
      </trkpt>
      <trkpt lat="46.5277" lon="-0.7682">
        <ele>50</ele>
        <time>2019-03-05T15:55:49Z</time>
      </trkpt>
      <trkpt lat="46.52756" lon="-0.76836">
        <ele>51</ele>
        <time>2019-03-05T15:56:49Z</time>
      </trkpt>
      <trkpt lat="46.52728" lon="-0.76837">
        <ele>50</ele>
        <time>2019-03-05T15:57:49Z</time>
      </trkpt>
      <trkpt lat="46.52701" lon="-0.76822">
        <ele>48</ele>
        <time>2019-03-05T15:58:49Z</time>
      </trkpt>
      <trkpt lat="46.52685" lon="-0.76801">
        <ele>47</ele>
        <time>2019-03-05T15:59:49Z</time>
      </trkpt>
      <trkpt lat="46.52676" lon="-0.76783">
        <ele>47</ele>
        <time>2019-03-05T16:00:49Z</time>
      </trkpt>
      <trkpt lat="46.52676" lon="-0.76761">
        <ele>47</ele>
        <time>2019-03-05T16:01:49Z</time>
      </trkpt>
      <trkpt lat="46.5269" lon="-0.76733">
        <ele>48</ele>
        <time>2019-03-05T16:02:49Z</time>
      </trkpt>
      <trkpt lat="46.52723" lon="-0.76694">
        <ele>50</ele>
        <time>2019-03-05T16:03:49Z</time>
      </trkpt>
      <trkpt lat="46.52745" lon="-0.76677">
        <ele>50</ele>
        <time>2019-03-05T16:04:49Z</time>
      </trkpt>
      <trkpt lat="46.52745" lon="-0.76675">
        <ele>49</ele>
        <time>2019-03-05T16:05:49Z</time>
      </trkpt>
      <trkpt lat="46.52812" lon="-0.76597">
        <ele>50</ele>
        <time>2019-03-05T16:06:49Z</time>
      </trkpt>
      <trkpt lat="46.52812" lon="-0.76597">
        <ele>50</ele>
        <time>2019-03-05T16:07:49Z</time>
      </trkpt>
      <trkpt lat="46.52873" lon="-0.76514">
        <ele>57</ele>
        <time>2019-03-05T16:08:49Z</time>
      </trkpt>
      <trkpt lat="46.52896" lon="-0.76462">
        <ele>57</ele>
        <time>2019-03-05T16:09:49Z</time>
      </trkpt>
      <trkpt lat="46.52916" lon="-0.76408">
        <ele>52</ele>
        <time>2019-03-05T16:10:49Z</time>
      </trkpt>
      <trkpt lat="46.52916" lon="-0.76408">
        <ele>52</ele>
        <time>2019-03-05T16:11:49Z</time>
      </trkpt>
      <trkpt lat="46.52932" lon="-0.76348">
        <ele>53</ele>
        <time>2019-03-05T16:12:49Z</time>
      </trkpt>
      <trkpt lat="46.52941" lon="-0.76298">
        <ele>54</ele>
        <time>2019-03-05T16:13:49Z</time>
      </trkpt>
      <trkpt lat="46.5294" lon="-0.76256">
        <ele>53</ele>
        <time>2019-03-05T16:14:49Z</time>
      </trkpt>
      <trkpt lat="46.52933" lon="-0.76209">
        <ele>50</ele>
        <time>2019-03-05T16:15:49Z</time>
      </trkpt>
      <trkpt lat="46.52935" lon="-0.76207">
        <ele>50</ele>
        <time>2019-03-05T16:16:49Z</time>
      </trkpt>
      <trkpt lat="46.52909" lon="-0.76153">
        <ele>46</ele>
        <time>2019-03-05T16:17:49Z</time>
      </trkpt>
      <trkpt lat="46.52899" lon="-0.76119">
        <ele>44</ele>
        <time>2019-03-05T16:18:49Z</time>
      </trkpt>
      <trkpt lat="46.52902" lon="-0.76112">
        <ele>44</ele>
        <time>2019-03-05T16:19:49Z</time>
      </trkpt>
      <trkpt lat="46.52912" lon="-0.76107">
        <ele>43</ele>
        <time>2019-03-05T16:20:49Z</time>
      </trkpt>
      <trkpt lat="46.52925" lon="-0.76109">
        <ele>43</ele>
        <time>2019-03-05T16:21:49Z</time>
      </trkpt>
      <trkpt lat="46.52939" lon="-0.76119">
        <ele>45</ele>
        <time>2019-03-05T16:22:49Z</time>
      </trkpt>
      <trkpt lat="46.52955" lon="-0.76121">
        <ele>47</ele>
        <time>2019-03-05T16:23:49Z</time>
      </trkpt>
      <trkpt lat="46.52971" lon="-0.76117">
        <ele>47</ele>
        <time>2019-03-05T16:24:49Z</time>
      </trkpt>
      <trkpt lat="46.5304" lon="-0.76079">
        <ele>45</ele>
        <time>2019-03-05T16:25:49Z</time>
      </trkpt>
      <trkpt lat="46.53065" lon="-0.76078">
        <ele>45</ele>
        <time>2019-03-05T16:26:49Z</time>
      </trkpt>
      <trkpt lat="46.53093" lon="-0.76081">
        <ele>46</ele>
        <time>2019-03-05T16:27:49Z</time>
      </trkpt>
      <trkpt lat="46.5311" lon="-0.76095">
        <ele>48</ele>
        <time>2019-03-05T16:28:49Z</time>
      </trkpt>
      <trkpt lat="46.53142" lon="-0.76144">
        <ele>53</ele>
        <time>2019-03-05T16:29:49Z</time>
      </trkpt>
      <trkpt lat="46.53154" lon="-0.76171">
        <ele>55</ele>
        <time>2019-03-05T16:30:49Z</time>
      </trkpt>
      <trkpt lat="46.53155" lon="-0.76186">
        <ele>57</ele>
        <time>2019-03-05T16:31:49Z</time>
      </trkpt>
      <trkpt lat="46.53168" lon="-0.76201">
        <ele>59</ele>
        <time>2019-03-05T16:32:49Z</time>
      </trkpt>
      <trkpt lat="46.53181" lon="-0.7621">
        <ele>60</ele>
        <time>2019-03-05T16:33:49Z</time>
      </trkpt>
      <trkpt lat="46.53194" lon="-0.7621">
        <ele>60</ele>
        <time>2019-03-05T16:34:49Z</time>
      </trkpt>
      <trkpt lat="46.53251" lon="-0.76193">
        <ele>54</ele>
        <time>2019-03-05T16:35:49Z</time>
      </trkpt>
      <trkpt lat="46.53262" lon="-0.7618">
        <ele>53</ele>
        <time>2019-03-05T16:36:49Z</time>
      </trkpt>
      <trkpt lat="46.53272" lon="-0.76154">
        <ele>52</ele>
        <time>2019-03-05T16:37:49Z</time>
      </trkpt>
      <trkpt lat="46.53286" lon="-0.76137">
        <ele>53</ele>
        <time>2019-03-05T16:38:49Z</time>
      </trkpt>
      <trkpt lat="46.53333" lon="-0.76103">
        <ele>53</ele>
        <time>2019-03-05T16:39:49Z</time>
      </trkpt>
      <trkpt lat="46.5335" lon="-0.76086">
        <ele>50</ele>
        <time>2019-03-05T16:40:49Z</time>
      </trkpt>
      <trkpt lat="46.53369" lon="-0.7606">
        <ele>50</ele>
        <time>2019-03-05T16:41:49Z</time>
      </trkpt>
      <trkpt lat="46.5338" lon="-0.76053">
        <ele>50</ele>
        <time>2019-03-05T16:42:49Z</time>
      </trkpt>
      <trkpt lat="46.5341" lon="-0.76061">
        <ele>49</ele>
        <time>2019-03-05T16:43:49Z</time>
      </trkpt>
      <trkpt lat="46.53476" lon="-0.76122">
        <ele>52</ele>
        <time>2019-03-05T16:44:49Z</time>
      </trkpt>
      <trkpt lat="46.53517" lon="-0.76137">
        <ele>51</ele>
        <time>2019-03-05T16:45:49Z</time>
      </trkpt>
      <trkpt lat="46.53542" lon="-0.76122">
        <ele>49</ele>
        <time>2019-03-05T16:46:49Z</time>
      </trkpt>
      <trkpt lat="46.53578" lon="-0.76071">
        <ele>48</ele>
        <time>2019-03-05T16:47:49Z</time>
      </trkpt>
      <trkpt lat="46.53569" lon="-0.76064">
        <ele>49</ele>
        <time>2019-03-05T16:48:49Z</time>
      </trkpt>
      <trkpt lat="46.53568" lon="-0.76055">
        <ele>49</ele>
        <time>2019-03-05T16:49:49Z</time>
      </trkpt>
      <trkpt lat="46.53559" lon="-0.76049">
        <ele>49</ele>
        <time>2019-03-05T16:50:49Z</time>
      </trkpt>
      <trkpt lat="46.5355" lon="-0.76046">
        <ele>49</ele>
        <time>2019-03-05T16:51:49Z</time>
      </trkpt>
      <trkpt lat="46.53548" lon="-0.76027">
        <ele>50</ele>
        <time>2019-03-05T16:52:49Z</time>
      </trkpt>
      <trkpt lat="46.5353" lon="-0.76056">
        <ele>48</ele>
        <time>2019-03-05T16:53:49Z</time>
      </trkpt>
      <trkpt lat="46.53512" lon="-0.76059">
        <ele>47</ele>
        <time>2019-03-05T16:54:49Z</time>
      </trkpt>
      <trkpt lat="46.53473" lon="-0.76028">
        <ele>49</ele>
        <time>2019-03-05T16:55:49Z</time>
      </trkpt>
      <trkpt lat="46.53448" lon="-0.75992">
        <ele>49</ele>
        <time>2019-03-05T16:56:49Z</time>
      </trkpt>
      <trkpt lat="46.53418" lon="-0.75955">
        <ele>53</ele>
        <time>2019-03-05T16:57:49Z</time>
      </trkpt>
      <trkpt lat="46.53403" lon="-0.75963">
        <ele>53</ele>
        <time>2019-03-05T16:58:49Z</time>
      </trkpt>
      <trkpt lat="46.53382" lon="-0.7597">
        <ele>54</ele>
        <time>2019-03-05T16:59:49Z</time>
      </trkpt>
      <trkpt lat="46.53342" lon="-0.75974">
        <ele>57</ele>
        <time>2019-03-05T17:00:49Z</time>
      </trkpt>
      <trkpt lat="46.53313" lon="-0.76">
        <ele>55</ele>
        <time>2019-03-05T17:01:49Z</time>
      </trkpt>
      <trkpt lat="46.5328" lon="-0.76059">
        <ele>53</ele>
        <time>2019-03-05T17:02:49Z</time>
      </trkpt>
      <trkpt lat="46.53267" lon="-0.76078">
        <ele>51</ele>
        <time>2019-03-05T17:03:49Z</time>
      </trkpt>
      <trkpt lat="46.53244" lon="-0.76105">
        <ele>50</ele>
        <time>2019-03-05T17:04:49Z</time>
      </trkpt>
      <trkpt lat="46.53231" lon="-0.76116">
        <ele>49</ele>
        <time>2019-03-05T17:05:49Z</time>
      </trkpt>
      <trkpt lat="46.53219" lon="-0.76119">
        <ele>49</ele>
        <time>2019-03-05T17:06:49Z</time>
      </trkpt>
      <trkpt lat="46.53198" lon="-0.76097">
        <ele>48</ele>
        <time>2019-03-05T17:07:49Z</time>
      </trkpt>
      <trkpt lat="46.53183" lon="-0.76066">
        <ele>49</ele>
        <time>2019-03-05T17:08:49Z</time>
      </trkpt>
      <trkpt lat="46.53164" lon="-0.7601">
        <ele>54</ele>
        <time>2019-03-05T17:09:49Z</time>
      </trkpt>
      <trkpt lat="46.53131" lon="-0.75989">
        <ele>53</ele>
        <time>2019-03-05T17:10:49Z</time>
      </trkpt>
      <trkpt lat="46.53102" lon="-0.75985">
        <ele>50</ele>
        <time>2019-03-05T17:11:49Z</time>
      </trkpt>
      <trkpt lat="46.53055" lon="-0.75996">
        <ele>44</ele>
        <time>2019-03-05T17:12:49Z</time>
      </trkpt>
      <trkpt lat="46.53008" lon="-0.76028">
        <ele>42</ele>
        <time>2019-03-05T17:13:49Z</time>
      </trkpt>
      <trkpt lat="46.52984" lon="-0.76032">
        <ele>41</ele>
        <time>2019-03-05T17:14:49Z</time>
      </trkpt>
      <trkpt lat="46.52956" lon="-0.76026">
        <ele>41</ele>
        <time>2019-03-05T17:15:49Z</time>
      </trkpt>
      <trkpt lat="46.52922" lon="-0.75996">
        <ele>40</ele>
        <time>2019-03-05T17:16:49Z</time>
      </trkpt>
      <trkpt lat="46.52913" lon="-0.75978">
        <ele>40</ele>
        <time>2019-03-05T17:17:49Z</time>
      </trkpt>
      <trkpt lat="46.52915" lon="-0.75894">
        <ele>41</ele>
        <time>2019-03-05T17:18:49Z</time>
      </trkpt>
      <trkpt lat="46.52953" lon="-0.75911">
        <ele>45</ele>
        <time>2019-03-05T17:19:49Z</time>
      </trkpt>
      <trkpt lat="46.52975" lon="-0.75912">
        <ele>48</ele>
        <time>2019-03-05T17:20:49Z</time>
      </trkpt>
      <trkpt lat="46.53001" lon="-0.75893">
        <ele>52</ele>
        <time>2019-03-05T17:21:49Z</time>
      </trkpt>
      <trkpt lat="46.53055" lon="-0.75875">
        <ele>59</ele>
        <time>2019-03-05T17:22:49Z</time>
      </trkpt>
      <trkpt lat="46.53101" lon="-0.75873">
        <ele>66</ele>
        <time>2019-03-05T17:23:49Z</time>
      </trkpt>
      <trkpt lat="46.53128" lon="-0.75856">
        <ele>72</ele>
        <time>2019-03-05T17:24:49Z</time>
      </trkpt>
      <trkpt lat="46.53158" lon="-0.75822">
        <ele>80</ele>
        <time>2019-03-05T17:25:49Z</time>
      </trkpt>
      <trkpt lat="46.53169" lon="-0.758">
        <ele>82</ele>
        <time>2019-03-05T17:26:49Z</time>
      </trkpt>
      <trkpt lat="46.53176" lon="-0.75703">
        <ele>85</ele>
        <time>2019-03-05T17:27:49Z</time>
      </trkpt>
      <trkpt lat="46.53193" lon="-0.75671">
        <ele>86</ele>
        <time>2019-03-05T17:28:49Z</time>
      </trkpt>
      <trkpt lat="46.53239" lon="-0.75615">
        <ele>92</ele>
        <time>2019-03-05T17:29:49Z</time>
      </trkpt>
      <trkpt lat="46.53287" lon="-0.75546">
        <ele>98</ele>
        <time>2019-03-05T17:30:49Z</time>
      </trkpt>
      <trkpt lat="46.53288" lon="-0.75538">
        <ele>98</ele>
        <time>2019-03-05T17:31:49Z</time>
      </trkpt>
      <trkpt lat="46.53272" lon="-0.75521">
        <ele>98</ele>
        <time>2019-03-05T17:32:49Z</time>
      </trkpt>
      <trkpt lat="46.53235" lon="-0.75468">
        <ele>98</ele>
        <time>2019-03-05T17:33:49Z</time>
      </trkpt>
      <trkpt lat="46.53188" lon="-0.75367">
        <ele>98</ele>
        <time>2019-03-05T17:34:49Z</time>
      </trkpt>
      <trkpt lat="46.53016" lon="-0.75037">
        <ele>97</ele>
        <time>2019-03-05T17:35:49Z</time>
      </trkpt>
      <trkpt lat="46.5295" lon="-0.74994">
        <ele>97</ele>
        <time>2019-03-05T17:36:49Z</time>
      </trkpt>
      <trkpt lat="46.52909" lon="-0.75018">
        <ele>95</ele>
        <time>2019-03-05T17:37:49Z</time>
      </trkpt>
      <trkpt lat="46.5288" lon="-0.75022">
        <ele>96</ele>
        <time>2019-03-05T17:38:49Z</time>
      </trkpt>
      <trkpt lat="46.52843" lon="-0.75017">
        <ele>98</ele>
        <time>2019-03-05T17:39:49Z</time>
      </trkpt>
      <trkpt lat="46.52807" lon="-0.75017">
        <ele>99</ele>
        <time>2019-03-05T17:40:49Z</time>
      </trkpt>
      <trkpt lat="46.5278" lon="-0.75023">
        <ele>98</ele>
        <time>2019-03-05T17:41:49Z</time>
      </trkpt>
      <trkpt lat="46.52749" lon="-0.75055">
        <ele>98</ele>
        <time>2019-03-05T17:42:49Z</time>
      </trkpt>
      <trkpt lat="46.52733" lon="-0.75085">
        <ele>97</ele>
        <time>2019-03-05T17:43:49Z</time>
      </trkpt>
      <trkpt lat="46.52706" lon="-0.75122">
        <ele>90</ele>
        <time>2019-03-05T17:44:49Z</time>
      </trkpt>
      <trkpt lat="46.52678" lon="-0.75139">
        <ele>88</ele>
        <time>2019-03-05T17:45:49Z</time>
      </trkpt>
      <trkpt lat="46.52655" lon="-0.75138">
        <ele>87</ele>
        <time>2019-03-05T17:46:49Z</time>
      </trkpt>
      <trkpt lat="46.52626" lon="-0.75149">
        <ele>83</ele>
        <time>2019-03-05T17:47:49Z</time>
      </trkpt>
      <trkpt lat="46.52601" lon="-0.75188">
        <ele>77</ele>
        <time>2019-03-05T17:48:49Z</time>
      </trkpt>
      <trkpt lat="46.52588" lon="-0.75242">
        <ele>70</ele>
        <time>2019-03-05T17:49:49Z</time>
      </trkpt>
      <trkpt lat="46.52511" lon="-0.75331">
        <ele>45</ele>
        <time>2019-03-05T17:50:49Z</time>
      </trkpt>
      <trkpt lat="46.52502" lon="-0.75271">
        <ele>47</ele>
        <time>2019-03-05T17:51:49Z</time>
      </trkpt>
      <trkpt lat="46.52502" lon="-0.75237">
        <ele>49</ele>
        <time>2019-03-05T17:52:49Z</time>
      </trkpt>
      <trkpt lat="46.52467" lon="-0.75092">
        <ele>51</ele>
        <time>2019-03-05T17:53:49Z</time>
      </trkpt>
      <trkpt lat="46.52451" lon="-0.74985">
        <ele>50</ele>
        <time>2019-03-05T17:54:49Z</time>
      </trkpt>
      <trkpt lat="46.5246" lon="-0.74952">
        <ele>51</ele>
        <time>2019-03-05T17:55:49Z</time>
      </trkpt>
      <trkpt lat="46.52474" lon="-0.74918">
        <ele>53</ele>
        <time>2019-03-05T17:56:49Z</time>
      </trkpt>
      <trkpt lat="46.52476" lon="-0.74911">
        <ele>53</ele>
        <time>2019-03-05T17:57:49Z</time>
      </trkpt>
      <trkpt lat="46.52475" lon="-0.74906">
        <ele>53</ele>
        <time>2019-03-05T17:58:49Z</time>
      </trkpt>
      <trkpt lat="46.5247" lon="-0.74899">
        <ele>52</ele>
        <time>2019-03-05T17:59:49Z</time>
      </trkpt>
      <trkpt lat="46.52392" lon="-0.74963">
        <ele>42</ele>
        <time>2019-03-05T18:00:49Z</time>
      </trkpt>
      <trkpt lat="46.52311" lon="-0.75032">
        <ele>40</ele>
        <time>2019-03-05T18:01:49Z</time>
      </trkpt>
      <trkpt lat="46.52291" lon="-0.75053">
        <ele>40</ele>
        <time>2019-03-05T18:02:49Z</time>
      </trkpt>
      <trkpt lat="46.52278" lon="-0.75074">
        <ele>41</ele>
        <time>2019-03-05T18:03:49Z</time>
      </trkpt>
      <trkpt lat="46.52281" lon="-0.75085">
        <ele>41</ele>
        <time>2019-03-05T18:04:49Z</time>
      </trkpt>
      <trkpt lat="46.52283" lon="-0.75129">
        <ele>44</ele>
        <time>2019-03-05T18:05:49Z</time>
      </trkpt>
      <trkpt lat="46.52289" lon="-0.75175">
        <ele>48</ele>
        <time>2019-03-05T18:06:49Z</time>
      </trkpt>
      <trkpt lat="46.52286" lon="-0.75231">
        <ele>54</ele>
        <time>2019-03-05T18:07:49Z</time>
      </trkpt>
      <trkpt lat="46.52291" lon="-0.75244">
        <ele>54</ele>
        <time>2019-03-05T18:08:49Z</time>
      </trkpt>
      <trkpt lat="46.52291" lon="-0.75257">
        <ele>56</ele>
        <time>2019-03-05T18:09:49Z</time>
      </trkpt>
      <trkpt lat="46.52287" lon="-0.75266">
        <ele>58</ele>
        <time>2019-03-05T18:10:49Z</time>
      </trkpt>
      <trkpt lat="46.52279" lon="-0.75277">
        <ele>60</ele>
        <time>2019-03-05T18:11:49Z</time>
      </trkpt>
      <trkpt lat="46.5225" lon="-0.75302">
        <ele>67</ele>
        <time>2019-03-05T18:12:49Z</time>
      </trkpt>
      <trkpt lat="46.52239" lon="-0.75317">
        <ele>68</ele>
        <time>2019-03-05T18:13:49Z</time>
      </trkpt>
      <trkpt lat="46.52234" lon="-0.75337">
        <ele>69</ele>
        <time>2019-03-05T18:14:49Z</time>
      </trkpt>
      <trkpt lat="46.52234" lon="-0.75359">
        <ele>72</ele>
        <time>2019-03-05T18:15:49Z</time>
      </trkpt>
      <trkpt lat="46.5226" lon="-0.75477">
        <ele>82</ele>
        <time>2019-03-05T18:16:49Z</time>
      </trkpt>
      <trkpt lat="46.5226" lon="-0.75499">
        <ele>83</ele>
        <time>2019-03-05T18:17:49Z</time>
      </trkpt>
      <trkpt lat="46.52267" lon="-0.7552">
        <ele>84</ele>
        <time>2019-03-05T18:18:49Z</time>
      </trkpt>
      <trkpt lat="46.52304" lon="-0.75607">
        <ele>85</ele>
        <time>2019-03-05T18:19:49Z</time>
      </trkpt>
      <trkpt lat="46.52307" lon="-0.75629">
        <ele>86</ele>
        <time>2019-03-05T18:20:49Z</time>
      </trkpt>
      <trkpt lat="46.52305" lon="-0.75635">
        <ele>86</ele>
        <time>2019-03-05T18:21:49Z</time>
      </trkpt>
      <trkpt lat="46.523" lon="-0.7563">
        <ele>86</ele>
        <time>2019-03-05T18:22:49Z</time>
      </trkpt>
      <trkpt lat="46.52307" lon="-0.75629">
        <ele>86</ele>
        <time>2019-03-05T18:23:49Z</time>
      </trkpt>
      <trkpt lat="46.52306" lon="-0.75635">
        <ele>86</ele>
        <time>2019-03-05T18:24:49Z</time>
      </trkpt>
      <trkpt lat="46.52308" lon="-0.75642">
        <ele>86</ele>
        <time>2019-03-05T18:25:49Z</time>
      </trkpt>
      <trkpt lat="46.52312" lon="-0.75727">
        <ele>88</ele>
        <time>2019-03-05T18:26:49Z</time>
      </trkpt>
      <trkpt lat="46.52324" lon="-0.7576">
        <ele>89</ele>
        <time>2019-03-05T18:27:49Z</time>
      </trkpt>
      <trkpt lat="46.52328" lon="-0.75791">
        <ele>90</ele>
        <time>2019-03-05T18:28:49Z</time>
      </trkpt>
      <trkpt lat="46.52332" lon="-0.75845">
        <ele>90</ele>
        <time>2019-03-05T18:29:49Z</time>
      </trkpt>
      <trkpt lat="46.5231" lon="-0.75983">
        <ele>81</ele>
        <time>2019-03-05T18:30:49Z</time>
      </trkpt>
      <trkpt lat="46.52304" lon="-0.75995">
        <ele>79</ele>
        <time>2019-03-05T18:31:49Z</time>
      </trkpt>
      <trkpt lat="46.523" lon="-0.75999">
        <ele>78</ele>
        <time>2019-03-05T18:32:49Z</time>
      </trkpt>
      <trkpt lat="46.52301" lon="-0.76027">
        <ele>78</ele>
        <time>2019-03-05T18:33:49Z</time>
      </trkpt>
      <trkpt lat="46.52293" lon="-0.76084">
        <ele>75</ele>
        <time>2019-03-05T18:34:49Z</time>
      </trkpt>
      <trkpt lat="46.52282" lon="-0.76155">
        <ele>75</ele>
        <time>2019-03-05T18:35:49Z</time>
      </trkpt>
      <trkpt lat="46.52276" lon="-0.76173">
        <ele>75</ele>
        <time>2019-03-05T18:36:49Z</time>
      </trkpt>
      <trkpt lat="46.52254" lon="-0.76218">
        <ele>74</ele>
        <time>2019-03-05T18:37:49Z</time>
      </trkpt>
      <trkpt lat="46.52246" lon="-0.76243">
        <ele>74</ele>
        <time>2019-03-05T18:38:49Z</time>
      </trkpt>
      <trkpt lat="46.52238" lon="-0.76289">
        <ele>74</ele>
        <time>2019-03-05T18:39:49Z</time>
      </trkpt>
      <trkpt lat="46.52236" lon="-0.76339">
        <ele>76</ele>
        <time>2019-03-05T18:40:49Z</time>
      </trkpt>
      <trkpt lat="46.5223" lon="-0.76415">
        <ele>74</ele>
        <time>2019-03-05T18:41:49Z</time>
      </trkpt>
      <trkpt lat="46.52225" lon="-0.76442">
        <ele>74</ele>
        <time>2019-03-05T18:42:49Z</time>
      </trkpt>
      <trkpt lat="46.52213" lon="-0.76489">
        <ele>73</ele>
        <time>2019-03-05T18:43:49Z</time>
      </trkpt>
      <trkpt lat="46.52195" lon="-0.76536">
        <ele>72</ele>
        <time>2019-03-05T18:44:49Z</time>
      </trkpt>
      <trkpt lat="46.52187" lon="-0.76565">
        <ele>71</ele>
        <time>2019-03-05T18:45:49Z</time>
      </trkpt>
      <trkpt lat="46.5212" lon="-0.77084">
        <ele>77</ele>
        <time>2019-03-05T18:46:49Z</time>
      </trkpt>
      <trkpt lat="46.52116" lon="-0.77157">
        <ele>78</ele>
        <time>2019-03-05T18:47:49Z</time>
      </trkpt>
      <trkpt lat="46.52114" lon="-0.77283">
        <ele>77</ele>
        <time>2019-03-05T18:48:49Z</time>
      </trkpt>
      <trkpt lat="46.52115" lon="-0.77335">
        <ele>77</ele>
        <time>2019-03-05T18:49:49Z</time>
      </trkpt>
      <trkpt lat="46.52086" lon="-0.77353">
        <ele>77</ele>
        <time>2019-03-05T18:50:49Z</time>
      </trkpt>
      <trkpt lat="46.52061" lon="-0.77353">
        <ele>76</ele>
        <time>2019-03-05T18:51:49Z</time>
      </trkpt>
      <trkpt lat="46.52033" lon="-0.77345">
        <ele>74</ele>
        <time>2019-03-05T18:52:49Z</time>
      </trkpt>
      <trkpt lat="46.52027" lon="-0.77341">
        <ele>73</ele>
        <time>2019-03-05T18:53:49Z</time>
      </trkpt>
      <trkpt lat="46.52019" lon="-0.77405">
        <ele>77</ele>
        <time>2019-03-05T18:54:49Z</time>
      </trkpt>
      <trkpt lat="46.51974" lon="-0.77384">
        <ele>74</ele>
        <time>2019-03-05T18:55:49Z</time>
      </trkpt>
      <trkpt lat="46.51935" lon="-0.77378">
        <ele>73</ele>
        <time>2019-03-05T18:56:49Z</time>
      </trkpt>
      <trkpt lat="46.51887" lon="-0.77397">
        <ele>71</ele>
        <time>2019-03-05T18:57:49Z</time>
      </trkpt>
      <trkpt lat="46.51835" lon="-0.7744">
        <ele>70</ele>
        <time>2019-03-05T18:58:49Z</time>
      </trkpt>
      <trkpt lat="46.51802" lon="-0.77496">
        <ele>68</ele>
        <time>2019-03-05T18:59:49Z</time>
      </trkpt>
      <trkpt lat="46.51776" lon="-0.77521">
        <ele>62</ele>
        <time>2019-03-05T19:00:49Z</time>
      </trkpt>
      <trkpt lat="46.51741" lon="-0.77567">
        <ele>54</ele>
        <time>2019-03-05T19:01:49Z</time>
      </trkpt>
      <trkpt lat="46.51745" lon="-0.77604">
        <ele>52</ele>
        <time>2019-03-05T19:02:49Z</time>
      </trkpt>
      <trkpt lat="46.51748" lon="-0.77655">
        <ele>48</ele>
        <time>2019-03-05T19:03:49Z</time>
      </trkpt>
      <trkpt lat="46.51772" lon="-0.77663">
        <ele>48</ele>
        <time>2019-03-05T19:04:49Z</time>
      </trkpt>
      <trkpt lat="46.51791" lon="-0.77673">
        <ele>48</ele>
        <time>2019-03-05T19:05:49Z</time>
      </trkpt>
      <trkpt lat="46.51815" lon="-0.77669">
        <ele>49</ele>
        <time>2019-03-05T19:06:49Z</time>
      </trkpt>
      <trkpt lat="46.51824" lon="-0.77711">
        <ele>47</ele>
        <time>2019-03-05T19:07:49Z</time>
      </trkpt>
      <trkpt lat="46.51819" lon="-0.77702">
        <ele>47</ele>
        <time>2019-03-05T19:08:49Z</time>
      </trkpt>
      <trkpt lat="46.51828" lon="-0.77717">
        <ele>47</ele>
        <time>2019-03-05T19:09:49Z</time>
      </trkpt>
      <trkpt lat="46.51839" lon="-0.7776">
        <ele>46</ele>
        <time>2019-03-05T19:10:49Z</time>
      </trkpt>
      <trkpt lat="46.51879" lon="-0.77833">
        <ele>49</ele>
        <time>2019-03-05T19:11:49Z</time>
      </trkpt>
      <trkpt lat="46.51898" lon="-0.77874">
        <ele>50</ele>
        <time>2019-03-05T19:12:49Z</time>
      </trkpt>
      <trkpt lat="46.51933" lon="-0.77995">
        <ele>47</ele>
        <time>2019-03-05T19:13:49Z</time>
      </trkpt>
      <trkpt lat="46.51943" lon="-0.78023">
        <ele>49</ele>
        <time>2019-03-05T19:14:49Z</time>
      </trkpt>
      <trkpt lat="46.51965" lon="-0.78059">
        <ele>53</ele>
        <time>2019-03-05T19:15:49Z</time>
      </trkpt>
      <trkpt lat="46.51957" lon="-0.78075">
        <ele>52</ele>
        <time>2019-03-05T19:16:49Z</time>
      </trkpt>
      <trkpt lat="46.51936" lon="-0.78083">
        <ele>49</ele>
        <time>2019-03-05T19:17:49Z</time>
      </trkpt>
      <trkpt lat="46.51909" lon="-0.7807">
        <ele>46</ele>
        <time>2019-03-05T19:18:49Z</time>
      </trkpt>
      <trkpt lat="46.5189" lon="-0.78074">
        <ele>44</ele>
        <time>2019-03-05T19:19:49Z</time>
      </trkpt>
      <trkpt lat="46.51888" lon="-0.78096">
        <ele>46</ele>
        <time>2019-03-05T19:20:49Z</time>
      </trkpt>
      <trkpt lat="46.5189" lon="-0.78111">
        <ele>48</ele>
        <time>2019-03-05T19:21:49Z</time>
      </trkpt>
      <trkpt lat="46.51884" lon="-0.78112">
        <ele>47</ele>
        <time>2019-03-05T19:22:49Z</time>
      </trkpt>
      <trkpt lat="46.5188" lon="-0.78136">
        <ele>49</ele>
        <time>2019-03-05T19:23:49Z</time>
      </trkpt>
      <trkpt lat="46.51863" lon="-0.78167">
        <ele>48</ele>
        <time>2019-03-05T19:24:49Z</time>
      </trkpt>
      <trkpt lat="46.51837" lon="-0.78197">
        <ele>44</ele>
        <time>2019-03-05T19:25:49Z</time>
      </trkpt>
      <trkpt lat="46.51834" lon="-0.78228">
        <ele>44</ele>
        <time>2019-03-05T19:26:49Z</time>
      </trkpt>
      <trkpt lat="46.51846" lon="-0.78279">
        <ele>50</ele>
        <time>2019-03-05T19:27:49Z</time>
      </trkpt>
      <trkpt lat="46.51846" lon="-0.78279">
        <ele>50</ele>
        <time>2019-03-05T19:28:49Z</time>
      </trkpt>
      <trkpt lat="46.51861" lon="-0.78311">
        <ele>54</ele>
        <time>2019-03-05T19:29:49Z</time>
      </trkpt>
      <trkpt lat="46.51871" lon="-0.78328">
        <ele>54</ele>
        <time>2019-03-05T19:30:49Z</time>
      </trkpt>
      <trkpt lat="46.51869" lon="-0.78341">
        <ele>55</ele>
        <time>2019-03-05T19:31:49Z</time>
      </trkpt>
      <trkpt lat="46.51869" lon="-0.78341">
        <ele>55</ele>
        <time>2019-03-05T19:32:49Z</time>
      </trkpt>
      <trkpt lat="46.51846" lon="-0.78332">
        <ele>55</ele>
        <time>2019-03-05T19:33:49Z</time>
      </trkpt>
      <trkpt lat="46.51845" lon="-0.78331">
        <ele>55</ele>
        <time>2019-03-05T19:34:49Z</time>
      </trkpt>
      <trkpt lat="46.51831" lon="-0.78336">
        <ele>56</ele>
        <time>2019-03-05T19:35:49Z</time>
      </trkpt>
      <trkpt lat="46.51794" lon="-0.78307">
        <ele>50</ele>
        <time>2019-03-05T19:36:49Z</time>
      </trkpt>
      <trkpt lat="46.51777" lon="-0.78275">
        <ele>45</ele>
        <time>2019-03-05T19:37:49Z</time>
      </trkpt>
      <trkpt lat="46.51748" lon="-0.78289">
        <ele>45</ele>
        <time>2019-03-05T19:38:49Z</time>
      </trkpt>
      <trkpt lat="46.51738" lon="-0.78319">
        <ele>47</ele>
        <time>2019-03-05T19:39:49Z</time>
      </trkpt>
      <trkpt lat="46.51704" lon="-0.78331">
        <ele>46</ele>
        <time>2019-03-05T19:40:49Z</time>
      </trkpt>
      <trkpt lat="46.51677" lon="-0.78355">
        <ele>48</ele>
        <time>2019-03-05T19:41:49Z</time>
      </trkpt>
      <trkpt lat="46.51639" lon="-0.78369">
        <ele>48</ele>
        <time>2019-03-05T19:42:49Z</time>
      </trkpt>
      <trkpt lat="46.51583" lon="-0.78412">
        <ele>49</ele>
        <time>2019-03-05T19:43:49Z</time>
      </trkpt>
      <trkpt lat="46.51553" lon="-0.78408">
        <ele>47</ele>
        <time>2019-03-05T19:44:49Z</time>
      </trkpt>
      <trkpt lat="46.51511" lon="-0.78407">
        <ele>45</ele>
        <time>2019-03-05T19:45:49Z</time>
      </trkpt>
      <trkpt lat="46.51474" lon="-0.7842">
        <ele>45</ele>
        <time>2019-03-05T19:46:49Z</time>
      </trkpt>
      <trkpt lat="46.51457" lon="-0.78552">
        <ele>58</ele>
        <time>2019-03-05T19:47:49Z</time>
      </trkpt>
      <trkpt lat="46.5145" lon="-0.7862">
        <ele>59</ele>
        <time>2019-03-05T19:48:49Z</time>
      </trkpt>
      <trkpt lat="46.51443" lon="-0.78628">
        <ele>58</ele>
        <time>2019-03-05T19:49:49Z</time>
      </trkpt>
      <trkpt lat="46.51439" lon="-0.78636">
        <ele>57</ele>
        <time>2019-03-05T19:50:49Z</time>
      </trkpt>
      <trkpt lat="46.5143" lon="-0.78662">
        <ele>55</ele>
        <time>2019-03-05T19:51:49Z</time>
      </trkpt>
      <trkpt lat="46.51426" lon="-0.78691">
        <ele>56</ele>
        <time>2019-03-05T19:52:49Z</time>
      </trkpt>
      <trkpt lat="46.51425" lon="-0.7869">
        <ele>55</ele>
        <time>2019-03-05T19:53:49Z</time>
      </trkpt>
      <trkpt lat="46.51412" lon="-0.78707">
        <ele>56</ele>
        <time>2019-03-05T19:54:49Z</time>
      </trkpt>
      <trkpt lat="46.51411" lon="-0.78769">
        <ele>60</ele>
        <time>2019-03-05T19:55:49Z</time>
      </trkpt>
      <trkpt lat="46.51422" lon="-0.78823">
        <ele>61</ele>
        <time>2019-03-05T19:56:49Z</time>
      </trkpt>
      <trkpt lat="46.51459" lon="-0.78879">
        <ele>68</ele>
        <time>2019-03-05T19:57:49Z</time>
      </trkpt>
      <trkpt lat="46.51466" lon="-0.78913">
        <ele>69</ele>
        <time>2019-03-05T19:58:49Z</time>
      </trkpt>
      <trkpt lat="46.51466" lon="-0.78913">
        <ele>69</ele>
        <time>2019-03-05T19:59:49Z</time>
      </trkpt>
      <trkpt lat="46.5146" lon="-0.78928">
        <ele>70</ele>
        <time>2019-03-05T20:00:49Z</time>
      </trkpt>
      <trkpt lat="46.5143" lon="-0.78882">
        <ele>65</ele>
        <time>2019-03-05T20:01:49Z</time>
      </trkpt>
      <trkpt lat="46.51414" lon="-0.7888">
        <ele>64</ele>
        <time>2019-03-05T20:02:49Z</time>
      </trkpt>
      <trkpt lat="46.51358" lon="-0.7898">
        <ele>76</ele>
        <time>2019-03-05T20:03:49Z</time>
      </trkpt>
      <trkpt lat="46.51356" lon="-0.78979">
        <ele>76</ele>
        <time>2019-03-05T20:04:49Z</time>
      </trkpt>
      <trkpt lat="46.51334" lon="-0.79038">
        <ele>75</ele>
        <time>2019-03-05T20:05:49Z</time>
      </trkpt>
      <trkpt lat="46.51306" lon="-0.79108">
        <ele>76</ele>
        <time>2019-03-05T20:06:49Z</time>
      </trkpt>
      <trkpt lat="46.51275" lon="-0.79125">
        <ele>79</ele>
        <time>2019-03-05T20:07:49Z</time>
      </trkpt>
      <trkpt lat="46.51248" lon="-0.79167">
        <ele>80</ele>
        <time>2019-03-05T20:08:49Z</time>
      </trkpt>
      <trkpt lat="46.51241" lon="-0.79231">
        <ele>80</ele>
        <time>2019-03-05T20:09:49Z</time>
      </trkpt>
      <trkpt lat="46.51242" lon="-0.79231">
        <ele>80</ele>
        <time>2019-03-05T20:10:49Z</time>
      </trkpt>
      <trkpt lat="46.51224" lon="-0.79241">
        <ele>81</ele>
        <time>2019-03-05T20:11:49Z</time>
      </trkpt>
      <trkpt lat="46.51209" lon="-0.79214">
        <ele>81</ele>
        <time>2019-03-05T20:12:49Z</time>
      </trkpt>
      <trkpt lat="46.51211" lon="-0.7921">
        <ele>81</ele>
        <time>2019-03-05T20:13:49Z</time>
      </trkpt>
      <trkpt lat="46.51186" lon="-0.79178">
        <ele>83</ele>
        <time>2019-03-05T20:14:49Z</time>
      </trkpt>
      <trkpt lat="46.51165" lon="-0.7916">
        <ele>84</ele>
        <time>2019-03-05T20:15:49Z</time>
      </trkpt>
      <trkpt lat="46.51118" lon="-0.79009">
        <ele>85</ele>
        <time>2019-03-05T20:16:49Z</time>
      </trkpt>
      <trkpt lat="46.5112" lon="-0.79008">
        <ele>85</ele>
        <time>2019-03-05T20:17:49Z</time>
      </trkpt>
      <trkpt lat="46.51105" lon="-0.78952">
        <ele>87</ele>
        <time>2019-03-05T20:18:49Z</time>
      </trkpt>
      <trkpt lat="46.51091" lon="-0.78921">
        <ele>88</ele>
        <time>2019-03-05T20:19:49Z</time>
      </trkpt>
      <trkpt lat="46.51093" lon="-0.78916">
        <ele>88</ele>
        <time>2019-03-05T20:20:49Z</time>
      </trkpt>
      <trkpt lat="46.51074" lon="-0.7888">
        <ele>87</ele>
        <time>2019-03-05T20:21:49Z</time>
      </trkpt>
      <trkpt lat="46.51052" lon="-0.78881">
        <ele>86</ele>
        <time>2019-03-05T20:22:49Z</time>
      </trkpt>
      <trkpt lat="46.5075" lon="-0.78998">
        <ele>78</ele>
        <time>2019-03-05T20:23:49Z</time>
      </trkpt>
      <trkpt lat="46.50558" lon="-0.79075">
        <ele>85</ele>
        <time>2019-03-05T20:24:49Z</time>
      </trkpt>
      <trkpt lat="46.50513" lon="-0.78774">
        <ele>79</ele>
        <time>2019-03-05T20:25:49Z</time>
      </trkpt>
      <trkpt lat="46.5046" lon="-0.78551">
        <ele>64</ele>
        <time>2019-03-05T20:26:49Z</time>
      </trkpt>
      <trkpt lat="46.50417" lon="-0.78528">
        <ele>61</ele>
        <time>2019-03-05T20:27:49Z</time>
      </trkpt>
      <trkpt lat="46.50371" lon="-0.78534">
        <ele>59</ele>
        <time>2019-03-05T20:28:49Z</time>
      </trkpt>
      <trkpt lat="46.5036" lon="-0.78513">
        <ele>55</ele>
        <time>2019-03-05T20:29:49Z</time>
      </trkpt>
      <trkpt lat="46.50335" lon="-0.78486">
        <ele>50</ele>
        <time>2019-03-05T20:30:49Z</time>
      </trkpt>
      <trkpt lat="46.50323" lon="-0.78485">
        <ele>49</ele>
        <time>2019-03-05T20:31:49Z</time>
      </trkpt>
      <trkpt lat="46.50246" lon="-0.78531">
        <ele>41</ele>
        <time>2019-03-05T20:32:49Z</time>
      </trkpt>
      <trkpt lat="46.50235" lon="-0.78536">
        <ele>38</ele>
        <time>2019-03-05T20:33:49Z</time>
      </trkpt>
      <trkpt lat="46.50216" lon="-0.78556">
        <ele>33</ele>
        <time>2019-03-05T20:34:49Z</time>
      </trkpt>
      <trkpt lat="46.50201" lon="-0.78555">
        <ele>30</ele>
        <time>2019-03-05T20:35:49Z</time>
      </trkpt>
      <trkpt lat="46.50195" lon="-0.78561">
        <ele>29</ele>
        <time>2019-03-05T20:36:49Z</time>
      </trkpt>
      <trkpt lat="46.50194" lon="-0.78566">
        <ele>28</ele>
        <time>2019-03-05T20:37:49Z</time>
      </trkpt>
      <trkpt lat="46.50187" lon="-0.78562">
        <ele>27</ele>
        <time>2019-03-05T20:38:49Z</time>
      </trkpt>
      <trkpt lat="46.50165" lon="-0.78534">
        <ele>25</ele>
        <time>2019-03-05T20:39:49Z</time>
      </trkpt>
      <trkpt lat="46.50133" lon="-0.78499">
        <ele>26</ele>
        <time>2019-03-05T20:40:49Z</time>
      </trkpt>
      <trkpt lat="46.50094" lon="-0.7842">
        <ele>23</ele>
        <time>2019-03-05T20:41:49Z</time>
      </trkpt>
      <trkpt lat="46.50053" lon="-0.78363">
        <ele>23</ele>
        <time>2019-03-05T20:42:49Z</time>
      </trkpt>
      <trkpt lat="46.50047" lon="-0.78349">
        <ele>23</ele>
        <time>2019-03-05T20:43:49Z</time>
      </trkpt>
      <trkpt lat="46.5001" lon="-0.78319">
        <ele>20</ele>
        <time>2019-03-05T20:44:49Z</time>
      </trkpt>
      <trkpt lat="46.49995" lon="-0.78327">
        <ele>22</ele>
        <time>2019-03-05T20:45:49Z</time>
      </trkpt>
      <trkpt lat="46.49975" lon="-0.78343">
        <ele>33</ele>
        <time>2019-03-05T20:46:49Z</time>
      </trkpt>
      <trkpt lat="46.49998" lon="-0.78413">
        <ele>30</ele>
        <time>2019-03-05T20:47:49Z</time>
      </trkpt>
      <trkpt lat="46.50024" lon="-0.7845">
        <ele>31</ele>
        <time>2019-03-05T20:48:49Z</time>
      </trkpt>
      <trkpt lat="46.50026" lon="-0.78448">
        <ele>31</ele>
        <time>2019-03-05T20:49:49Z</time>
      </trkpt>
      <trkpt lat="46.50086" lon="-0.78546">
        <ele>26</ele>
        <time>2019-03-05T20:50:49Z</time>
      </trkpt>
      <trkpt lat="46.50085" lon="-0.78581">
        <ele>29</ele>
        <time>2019-03-05T20:51:49Z</time>
      </trkpt>
      <trkpt lat="46.50069" lon="-0.78583">
        <ele>33</ele>
        <time>2019-03-05T20:52:49Z</time>
      </trkpt>
      <trkpt lat="46.49963" lon="-0.78501">
        <ele>49</ele>
        <time>2019-03-05T20:53:49Z</time>
      </trkpt>
      <trkpt lat="46.49915" lon="-0.78476">
        <ele>58</ele>
        <time>2019-03-05T20:54:49Z</time>
      </trkpt>
      <trkpt lat="46.4988" lon="-0.78426">
        <ele>62</ele>
        <time>2019-03-05T20:55:49Z</time>
      </trkpt>
      <trkpt lat="46.49842" lon="-0.78397">
        <ele>66</ele>
        <time>2019-03-05T20:56:49Z</time>
      </trkpt>
      <trkpt lat="46.49768" lon="-0.78363">
        <ele>70</ele>
        <time>2019-03-05T20:57:49Z</time>
      </trkpt>
      <trkpt lat="46.49765" lon="-0.78368">
        <ele>69</ele>
        <time>2019-03-05T20:58:49Z</time>
      </trkpt>
      <trkpt lat="46.49752" lon="-0.78353">
        <ele>70</ele>
        <time>2019-03-05T20:59:49Z</time>
      </trkpt>
      <trkpt lat="46.49733" lon="-0.78326">
        <ele>71</ele>
        <time>2019-03-05T21:00:49Z</time>
      </trkpt>
      <trkpt lat="46.49661" lon="-0.78269">
        <ele>73</ele>
        <time>2019-03-05T21:01:49Z</time>
      </trkpt>
      <trkpt lat="46.49648" lon="-0.78263">
        <ele>74</ele>
        <time>2019-03-05T21:02:49Z</time>
      </trkpt>
      <trkpt lat="46.49589" lon="-0.78294">
        <ele>75</ele>
        <time>2019-03-05T21:03:49Z</time>
      </trkpt>
      <trkpt lat="46.49532" lon="-0.78352">
        <ele>75</ele>
        <time>2019-03-05T21:04:49Z</time>
      </trkpt>
      <trkpt lat="46.49519" lon="-0.78361">
        <ele>75</ele>
        <time>2019-03-05T21:05:49Z</time>
      </trkpt>
      <trkpt lat="46.49506" lon="-0.78344">
        <ele>76</ele>
        <time>2019-03-05T21:06:49Z</time>
      </trkpt>
      <trkpt lat="46.49497" lon="-0.78321">
        <ele>76</ele>
        <time>2019-03-05T21:07:49Z</time>
      </trkpt>
      <trkpt lat="46.49488" lon="-0.78284">
        <ele>76</ele>
        <time>2019-03-05T21:08:49Z</time>
      </trkpt>
      <trkpt lat="46.49477" lon="-0.78257">
        <ele>76</ele>
        <time>2019-03-05T21:09:49Z</time>
      </trkpt>
      <trkpt lat="46.49455" lon="-0.78221">
        <ele>75</ele>
        <time>2019-03-05T21:10:49Z</time>
      </trkpt>
      <trkpt lat="46.49436" lon="-0.78202">
        <ele>74</ele>
        <time>2019-03-05T21:11:49Z</time>
      </trkpt>
      <trkpt lat="46.49431" lon="-0.78196">
        <ele>74</ele>
        <time>2019-03-05T21:12:49Z</time>
      </trkpt>
      <trkpt lat="46.49446" lon="-0.78183">
        <ele>74</ele>
        <time>2019-03-05T21:13:49Z</time>
      </trkpt>
      <trkpt lat="46.49455" lon="-0.7817">
        <ele>74</ele>
        <time>2019-03-05T21:14:49Z</time>
      </trkpt>
      <trkpt lat="46.4946" lon="-0.7816">
        <ele>75</ele>
        <time>2019-03-05T21:15:49Z</time>
      </trkpt>
      <trkpt lat="46.49478" lon="-0.7811">
        <ele>76</ele>
        <time>2019-03-05T21:16:49Z</time>
      </trkpt>
      <trkpt lat="46.49485" lon="-0.78093">
        <ele>76</ele>
        <time>2019-03-05T21:17:49Z</time>
      </trkpt>
      <trkpt lat="46.49527" lon="-0.78033">
        <ele>78</ele>
        <time>2019-03-05T21:18:49Z</time>
      </trkpt>
      <trkpt lat="46.49537" lon="-0.78014">
        <ele>78</ele>
        <time>2019-03-05T21:19:49Z</time>
      </trkpt>
      <trkpt lat="46.49582" lon="-0.77827">
        <ele>85</ele>
        <time>2019-03-05T21:20:49Z</time>
      </trkpt>
      <trkpt lat="46.49591" lon="-0.77777">
        <ele>86</ele>
        <time>2019-03-05T21:21:49Z</time>
      </trkpt>
      <trkpt lat="46.49599" lon="-0.77709">
        <ele>85</ele>
        <time>2019-03-05T21:22:49Z</time>
      </trkpt>
      <trkpt lat="46.49598" lon="-0.77634">
        <ele>82</ele>
        <time>2019-03-05T21:23:49Z</time>
      </trkpt>
      <trkpt lat="46.49599" lon="-0.77602">
        <ele>81</ele>
        <time>2019-03-05T21:24:49Z</time>
      </trkpt>
      <trkpt lat="46.49604" lon="-0.7754">
        <ele>80</ele>
        <time>2019-03-05T21:25:49Z</time>
      </trkpt>
      <trkpt lat="46.49613" lon="-0.7748">
        <ele>80</ele>
        <time>2019-03-05T21:26:49Z</time>
      </trkpt>
      <trkpt lat="46.4963" lon="-0.77424">
        <ele>80</ele>
        <time>2019-03-05T21:27:49Z</time>
      </trkpt>
      <trkpt lat="46.49639" lon="-0.77404">
        <ele>80</ele>
        <time>2019-03-05T21:28:49Z</time>
      </trkpt>
      <trkpt lat="46.49663" lon="-0.77365">
        <ele>80</ele>
        <time>2019-03-05T21:29:49Z</time>
      </trkpt>
      <trkpt lat="46.49678" lon="-0.77329">
        <ele>81</ele>
        <time>2019-03-05T21:30:49Z</time>
      </trkpt>
      <trkpt lat="46.4969" lon="-0.77281">
        <ele>83</ele>
        <time>2019-03-05T21:31:49Z</time>
      </trkpt>
      <trkpt lat="46.49722" lon="-0.7712">
        <ele>90</ele>
        <time>2019-03-05T21:32:49Z</time>
      </trkpt>
      <trkpt lat="46.49729" lon="-0.77099">
        <ele>91</ele>
        <time>2019-03-05T21:33:49Z</time>
      </trkpt>
      <trkpt lat="46.49744" lon="-0.77068">
        <ele>93</ele>
        <time>2019-03-05T21:34:49Z</time>
      </trkpt>
      <trkpt lat="46.49747" lon="-0.77065">
        <ele>93</ele>
        <time>2019-03-05T21:35:49Z</time>
      </trkpt>
      <trkpt lat="46.49749" lon="-0.77052">
        <ele>93</ele>
        <time>2019-03-05T21:36:49Z</time>
      </trkpt>
      <trkpt lat="46.49728" lon="-0.76997">
        <ele>93</ele>
        <time>2019-03-05T21:37:49Z</time>
      </trkpt>
      <trkpt lat="46.49724" lon="-0.76982">
        <ele>94</ele>
        <time>2019-03-05T21:38:49Z</time>
      </trkpt>
      <trkpt lat="46.49714" lon="-0.76901">
        <ele>95</ele>
        <time>2019-03-05T21:39:49Z</time>
      </trkpt>
      <trkpt lat="46.49696" lon="-0.76799">
        <ele>95</ele>
        <time>2019-03-05T21:40:49Z</time>
      </trkpt>
      <trkpt lat="46.49694" lon="-0.76764">
        <ele>95</ele>
        <time>2019-03-05T21:41:49Z</time>
      </trkpt>
      <trkpt lat="46.49694" lon="-0.76725">
        <ele>95</ele>
        <time>2019-03-05T21:42:49Z</time>
      </trkpt>
      <trkpt lat="46.49697" lon="-0.76614">
        <ele>96</ele>
        <time>2019-03-05T21:43:49Z</time>
      </trkpt>
      <trkpt lat="46.49686" lon="-0.76517">
        <ele>94</ele>
        <time>2019-03-05T21:44:49Z</time>
      </trkpt>
      <trkpt lat="46.49682" lon="-0.76463">
        <ele>93</ele>
        <time>2019-03-05T21:45:49Z</time>
      </trkpt>
      <trkpt lat="46.49682" lon="-0.76276">
        <ele>98</ele>
        <time>2019-03-05T21:46:49Z</time>
      </trkpt>
      <trkpt lat="46.49671" lon="-0.76078">
        <ele>102</ele>
        <time>2019-03-05T21:47:49Z</time>
      </trkpt>
      <trkpt lat="46.49667" lon="-0.76043">
        <ele>103</ele>
        <time>2019-03-05T21:48:49Z</time>
      </trkpt>
      <trkpt lat="46.49656" lon="-0.75981">
        <ele>104</ele>
        <time>2019-03-05T21:49:49Z</time>
      </trkpt>
      <trkpt lat="46.49649" lon="-0.7596">
        <ele>104</ele>
        <time>2019-03-05T21:50:49Z</time>
      </trkpt>
      <trkpt lat="46.49641" lon="-0.75943">
        <ele>104</ele>
        <time>2019-03-05T21:51:49Z</time>
      </trkpt>
      <trkpt lat="46.49496" lon="-0.75722">
        <ele>97</ele>
        <time>2019-03-05T21:52:49Z</time>
      </trkpt>
      <trkpt lat="46.49445" lon="-0.75652">
        <ele>98</ele>
        <time>2019-03-05T21:53:49Z</time>
      </trkpt>
      <trkpt lat="46.49395" lon="-0.75593">
        <ele>101</ele>
        <time>2019-03-05T21:54:49Z</time>
      </trkpt>
      <trkpt lat="46.49403" lon="-0.75571">
        <ele>101</ele>
        <time>2019-03-05T21:55:49Z</time>
      </trkpt>
      <trkpt lat="46.49401" lon="-0.75534">
        <ele>100</ele>
        <time>2019-03-05T21:56:49Z</time>
      </trkpt>
      <trkpt lat="46.49375" lon="-0.75338">
        <ele>104</ele>
        <time>2019-03-05T21:57:49Z</time>
      </trkpt>
      <trkpt lat="46.49362" lon="-0.75273">
        <ele>104</ele>
        <time>2019-03-05T21:58:49Z</time>
      </trkpt>
      <trkpt lat="46.49351" lon="-0.75229">
        <ele>103</ele>
        <time>2019-03-05T21:59:49Z</time>
      </trkpt>
      <trkpt lat="46.49337" lon="-0.75192">
        <ele>102</ele>
        <time>2019-03-05T22:00:49Z</time>
      </trkpt>
      <trkpt lat="46.4932" lon="-0.75153">
        <ele>101</ele>
        <time>2019-03-05T22:01:49Z</time>
      </trkpt>
      <trkpt lat="46.49301" lon="-0.75128">
        <ele>100</ele>
        <time>2019-03-05T22:02:49Z</time>
      </trkpt>
      <trkpt lat="46.49244" lon="-0.75129">
        <ele>99</ele>
        <time>2019-03-05T22:03:49Z</time>
      </trkpt>
      <trkpt lat="46.4923" lon="-0.75094">
        <ele>99</ele>
        <time>2019-03-05T22:04:49Z</time>
      </trkpt>
      <trkpt lat="46.49207" lon="-0.75054">
        <ele>98</ele>
        <time>2019-03-05T22:05:49Z</time>
      </trkpt>
      <trkpt lat="46.49187" lon="-0.75001">
        <ele>98</ele>
        <time>2019-03-05T22:06:49Z</time>
      </trkpt>
      <trkpt lat="46.49164" lon="-0.74961">
        <ele>98</ele>
        <time>2019-03-05T22:07:49Z</time>
      </trkpt>
      <trkpt lat="46.49148" lon="-0.74942">
        <ele>97</ele>
        <time>2019-03-05T22:08:49Z</time>
      </trkpt>
      <trkpt lat="46.49133" lon="-0.74931">
        <ele>97</ele>
        <time>2019-03-05T22:09:49Z</time>
      </trkpt>
      <trkpt lat="46.49097" lon="-0.74914">
        <ele>97</ele>
        <time>2019-03-05T22:10:49Z</time>
      </trkpt>
      <trkpt lat="46.49082" lon="-0.7491">
        <ele>97</ele>
        <time>2019-03-05T22:11:49Z</time>
      </trkpt>
      <trkpt lat="46.49051" lon="-0.74895">
        <ele>97</ele>
        <time>2019-03-05T22:12:49Z</time>
      </trkpt>
      <trkpt lat="46.49121" lon="-0.74814">
        <ele>96</ele>
        <time>2019-03-05T22:13:49Z</time>
      </trkpt>
      <trkpt lat="46.49147" lon="-0.74787">
        <ele>96</ele>
        <time>2019-03-05T22:14:49Z</time>
      </trkpt>
      <trkpt lat="46.49196" lon="-0.7475">
        <ele>93</ele>
        <time>2019-03-05T22:15:49Z</time>
      </trkpt>
      <trkpt lat="46.49242" lon="-0.74727">
        <ele>90</ele>
        <time>2019-03-05T22:16:49Z</time>
      </trkpt>
      <trkpt lat="46.49265" lon="-0.74723">
        <ele>88</ele>
        <time>2019-03-05T22:17:49Z</time>
      </trkpt>
      <trkpt lat="46.4931" lon="-0.7472">
        <ele>85</ele>
        <time>2019-03-05T22:18:49Z</time>
      </trkpt>
      <trkpt lat="46.49344" lon="-0.74724">
        <ele>83</ele>
        <time>2019-03-05T22:19:49Z</time>
      </trkpt>
      <trkpt lat="46.49355" lon="-0.74719">
        <ele>83</ele>
        <time>2019-03-05T22:20:49Z</time>
      </trkpt>
      <trkpt lat="46.49355" lon="-0.74715">
        <ele>83</ele>
        <time>2019-03-05T22:21:49Z</time>
      </trkpt>
      <trkpt lat="46.49412" lon="-0.74622">
        <ele>80</ele>
        <time>2019-03-05T22:22:49Z</time>
      </trkpt>
      <trkpt lat="46.49412" lon="-0.74622">
        <ele>80</ele>
        <time>2019-03-05T22:23:49Z</time>
      </trkpt>
      <trkpt lat="46.49548" lon="-0.74532">
        <ele>69</ele>
        <time>2019-03-05T22:24:49Z</time>
      </trkpt>
      <trkpt lat="46.49548" lon="-0.74532">
        <ele>69</ele>
        <time>2019-03-05T22:25:49Z</time>
      </trkpt>
      <trkpt lat="46.49616" lon="-0.74463">
        <ele>62</ele>
        <time>2019-03-05T22:26:49Z</time>
      </trkpt>
      <trkpt lat="46.49616" lon="-0.74463">
        <ele>62</ele>
        <time>2019-03-05T22:27:49Z</time>
      </trkpt>
      <trkpt lat="46.49688" lon="-0.74423">
        <ele>51</ele>
        <time>2019-03-05T22:28:49Z</time>
      </trkpt>
      <trkpt lat="46.49703" lon="-0.74402">
        <ele>49</ele>
        <time>2019-03-05T22:29:49Z</time>
      </trkpt>
      <trkpt lat="46.49703" lon="-0.74403">
        <ele>49</ele>
        <time>2019-03-05T22:30:49Z</time>
      </trkpt>
      <trkpt lat="46.49704" lon="-0.74334">
        <ele>52</ele>
        <time>2019-03-05T22:31:49Z</time>
      </trkpt>
      <trkpt lat="46.49711" lon="-0.7431">
        <ele>50</ele>
        <time>2019-03-05T22:32:49Z</time>
      </trkpt>
      <trkpt lat="46.49724" lon="-0.74284">
        <ele>48</ele>
        <time>2019-03-05T22:33:49Z</time>
      </trkpt>
      <trkpt lat="46.49779" lon="-0.74193">
        <ele>41</ele>
        <time>2019-03-05T22:34:49Z</time>
      </trkpt>
      <trkpt lat="46.49804" lon="-0.74147">
        <ele>40</ele>
        <time>2019-03-05T22:35:49Z</time>
      </trkpt>
      <trkpt lat="46.49804" lon="-0.74147">
        <ele>40</ele>
        <time>2019-03-05T22:36:49Z</time>
      </trkpt>
      <trkpt lat="46.49806" lon="-0.7411">
        <ele>40</ele>
        <time>2019-03-05T22:37:49Z</time>
      </trkpt>
      <trkpt lat="46.49785" lon="-0.74041">
        <ele>41</ele>
        <time>2019-03-05T22:38:49Z</time>
      </trkpt>
      <trkpt lat="46.49736" lon="-0.73952">
        <ele>49</ele>
        <time>2019-03-05T22:39:49Z</time>
      </trkpt>
      <trkpt lat="46.49736" lon="-0.73952">
        <ele>49</ele>
        <time>2019-03-05T22:40:49Z</time>
      </trkpt>
      <trkpt lat="46.49759" lon="-0.73886">
        <ele>51</ele>
        <time>2019-03-05T22:41:49Z</time>
      </trkpt>
      <trkpt lat="46.49759" lon="-0.73886">
        <ele>51</ele>
        <time>2019-03-05T22:42:49Z</time>
      </trkpt>
      <trkpt lat="46.49794" lon="-0.73706">
        <ele>56</ele>
        <time>2019-03-05T22:43:49Z</time>
      </trkpt>
      <trkpt lat="46.49817" lon="-0.73639">
        <ele>57</ele>
        <time>2019-03-05T22:44:49Z</time>
      </trkpt>
      <trkpt lat="46.49815" lon="-0.73548">
        <ele>60</ele>
        <time>2019-03-05T22:45:49Z</time>
      </trkpt>
      <trkpt lat="46.49815" lon="-0.73548">
        <ele>60</ele>
        <time>2019-03-05T22:46:49Z</time>
      </trkpt>
      <trkpt lat="46.49832" lon="-0.73477">
        <ele>64</ele>
        <time>2019-03-05T22:47:49Z</time>
      </trkpt>
      <trkpt lat="46.49871" lon="-0.73381">
        <ele>67</ele>
        <time>2019-03-05T22:48:49Z</time>
      </trkpt>
      <trkpt lat="46.49901" lon="-0.73328">
        <ele>68</ele>
        <time>2019-03-05T22:49:49Z</time>
      </trkpt>
      <trkpt lat="46.49901" lon="-0.73328">
        <ele>68</ele>
        <time>2019-03-05T22:50:49Z</time>
      </trkpt>
      <trkpt lat="46.49959" lon="-0.73277">
        <ele>69</ele>
        <time>2019-03-05T22:51:49Z</time>
      </trkpt>
      <trkpt lat="46.49959" lon="-0.73277">
        <ele>69</ele>
        <time>2019-03-05T22:52:49Z</time>
      </trkpt>
      <trkpt lat="46.50031" lon="-0.73244">
        <ele>71</ele>
        <time>2019-03-05T22:53:49Z</time>
      </trkpt>
      <trkpt lat="46.50031" lon="-0.73244">
        <ele>71</ele>
        <time>2019-03-05T22:54:49Z</time>
      </trkpt>
      <trkpt lat="46.50068" lon="-0.73207">
        <ele>75</ele>
        <time>2019-03-05T22:55:49Z</time>
      </trkpt>
      <trkpt lat="46.50068" lon="-0.73207">
        <ele>75</ele>
        <time>2019-03-05T22:56:49Z</time>
      </trkpt>
      <trkpt lat="46.50148" lon="-0.73161">
        <ele>80</ele>
        <time>2019-03-05T22:57:49Z</time>
      </trkpt>
      <trkpt lat="46.50184" lon="-0.73132">
        <ele>80</ele>
        <time>2019-03-05T22:58:49Z</time>
      </trkpt>
      <trkpt lat="46.50319" lon="-0.73059">
        <ele>85</ele>
        <time>2019-03-05T22:59:49Z</time>
      </trkpt>
      <trkpt lat="46.50319" lon="-0.73059">
        <ele>85</ele>
        <time>2019-03-05T23:00:49Z</time>
      </trkpt>
      <trkpt lat="46.50342" lon="-0.72967">
        <ele>78</ele>
        <time>2019-03-05T23:01:49Z</time>
      </trkpt>
      <trkpt lat="46.50342" lon="-0.72967">
        <ele>78</ele>
        <time>2019-03-05T23:02:49Z</time>
      </trkpt>
      <trkpt lat="46.50425" lon="-0.72865">
        <ele>82</ele>
        <time>2019-03-05T23:03:49Z</time>
      </trkpt>
      <trkpt lat="46.50423" lon="-0.72863">
        <ele>82</ele>
        <time>2019-03-05T23:04:49Z</time>
      </trkpt>
      <trkpt lat="46.50427" lon="-0.72859">
        <ele>82</ele>
        <time>2019-03-05T23:05:49Z</time>
      </trkpt>
      <trkpt lat="46.50542" lon="-0.72812">
        <ele>89</ele>
        <time>2019-03-05T23:06:49Z</time>
      </trkpt>
      <trkpt lat="46.50604" lon="-0.72766">
        <ele>88</ele>
        <time>2019-03-05T23:07:49Z</time>
      </trkpt>
      <trkpt lat="46.50657" lon="-0.72759">
        <ele>88</ele>
        <time>2019-03-05T23:08:49Z</time>
      </trkpt>
      <trkpt lat="46.50683" lon="-0.7275">
        <ele>88</ele>
        <time>2019-03-05T23:09:49Z</time>
      </trkpt>
      <trkpt lat="46.50708" lon="-0.72716">
        <ele>88</ele>
        <time>2019-03-05T23:10:49Z</time>
      </trkpt>
      <trkpt lat="46.50729" lon="-0.72667">
        <ele>88</ele>
        <time>2019-03-05T23:11:49Z</time>
      </trkpt>
      <trkpt lat="46.50737" lon="-0.72639">
        <ele>89</ele>
        <time>2019-03-05T23:12:49Z</time>
      </trkpt>
      <trkpt lat="46.50738" lon="-0.72614">
        <ele>89</ele>
        <time>2019-03-05T23:13:49Z</time>
      </trkpt>
      <trkpt lat="46.50734" lon="-0.72573">
        <ele>90</ele>
        <time>2019-03-05T23:14:49Z</time>
      </trkpt>
      <trkpt lat="46.50714" lon="-0.72496">
        <ele>92</ele>
        <time>2019-03-05T23:15:49Z</time>
      </trkpt>
      <trkpt lat="46.50707" lon="-0.72473">
        <ele>92</ele>
        <time>2019-03-05T23:16:49Z</time>
      </trkpt>
      <trkpt lat="46.50749" lon="-0.72477">
        <ele>91</ele>
        <time>2019-03-05T23:17:49Z</time>
      </trkpt>
      <trkpt lat="46.50749" lon="-0.72371">
        <ele>93</ele>
        <time>2019-03-05T23:18:49Z</time>
      </trkpt>
      <trkpt lat="46.50766" lon="-0.72235">
        <ele>94</ele>
        <time>2019-03-05T23:19:49Z</time>
      </trkpt>
      <trkpt lat="46.50824" lon="-0.71987">
        <ele>94</ele>
        <time>2019-03-05T23:20:49Z</time>
      </trkpt>
      <trkpt lat="46.50834" lon="-0.71932">
        <ele>94</ele>
        <time>2019-03-05T23:21:49Z</time>
      </trkpt>
      <trkpt lat="46.50846" lon="-0.71827">
        <ele>97</ele>
        <time>2019-03-05T23:22:49Z</time>
      </trkpt>
      <trkpt lat="46.50861" lon="-0.71653">
        <ele>99</ele>
        <time>2019-03-05T23:23:49Z</time>
      </trkpt>
      <trkpt lat="46.5086" lon="-0.71642">
        <ele>99</ele>
        <time>2019-03-05T23:24:49Z</time>
      </trkpt>
      <trkpt lat="46.50859" lon="-0.71639">
        <ele>99</ele>
        <time>2019-03-05T23:25:49Z</time>
      </trkpt>
      <trkpt lat="46.50866" lon="-0.71636">
        <ele>99</ele>
        <time>2019-03-05T23:26:49Z</time>
      </trkpt>
      <trkpt lat="46.50919" lon="-0.71658">
        <ele>98</ele>
        <time>2019-03-05T23:27:49Z</time>
      </trkpt>
      <trkpt lat="46.50932" lon="-0.71662">
        <ele>98</ele>
        <time>2019-03-05T23:28:49Z</time>
      </trkpt>
      <trkpt lat="46.50962" lon="-0.71654">
        <ele>97</ele>
        <time>2019-03-05T23:29:49Z</time>
      </trkpt>
      <trkpt lat="46.51013" lon="-0.71626">
        <ele>96</ele>
        <time>2019-03-05T23:30:49Z</time>
      </trkpt>
      <trkpt lat="46.51067" lon="-0.71576">
        <ele>93</ele>
        <time>2019-03-05T23:31:49Z</time>
      </trkpt>
      <trkpt lat="46.51084" lon="-0.71572">
        <ele>93</ele>
        <time>2019-03-05T23:32:49Z</time>
      </trkpt>
      <trkpt lat="46.51134" lon="-0.71586">
        <ele>91</ele>
        <time>2019-03-05T23:33:49Z</time>
      </trkpt>
      <trkpt lat="46.51221" lon="-0.71641">
        <ele>87</ele>
        <time>2019-03-05T23:34:49Z</time>
      </trkpt>
      <trkpt lat="46.51313" lon="-0.71716">
        <ele>79</ele>
        <time>2019-03-05T23:35:49Z</time>
      </trkpt>
      <trkpt lat="46.5138" lon="-0.71721">
        <ele>77</ele>
        <time>2019-03-05T23:36:49Z</time>
      </trkpt>
      <trkpt lat="46.51437" lon="-0.71744">
        <ele>79</ele>
        <time>2019-03-05T23:37:49Z</time>
      </trkpt>
      <trkpt lat="46.51553" lon="-0.7176">
        <ele>84</ele>
        <time>2019-03-05T23:38:49Z</time>
      </trkpt>
      <trkpt lat="46.5171" lon="-0.71737">
        <ele>92</ele>
        <time>2019-03-05T23:39:49Z</time>
      </trkpt>
      <trkpt lat="46.51742" lon="-0.71726">
        <ele>93</ele>
        <time>2019-03-05T23:40:49Z</time>
      </trkpt>
      <trkpt lat="46.51781" lon="-0.7172">
        <ele>93</ele>
        <time>2019-03-05T23:41:49Z</time>
      </trkpt>
      <trkpt lat="46.51787" lon="-0.71694">
        <ele>93</ele>
        <time>2019-03-05T23:42:49Z</time>
      </trkpt>
      <trkpt lat="46.51817" lon="-0.71622">
        <ele>92</ele>
        <time>2019-03-05T23:43:49Z</time>
      </trkpt>
      <trkpt lat="46.51859" lon="-0.71526">
        <ele>91</ele>
        <time>2019-03-05T23:44:49Z</time>
      </trkpt>
      <trkpt lat="46.51907" lon="-0.71382">
        <ele>93</ele>
        <time>2019-03-05T23:45:49Z</time>
      </trkpt>
      <trkpt lat="46.51933" lon="-0.71285">
        <ele>95</ele>
        <time>2019-03-05T23:46:49Z</time>
      </trkpt>
      <trkpt lat="46.51946" lon="-0.71246">
        <ele>95</ele>
        <time>2019-03-05T23:47:49Z</time>
      </trkpt>
      <trkpt lat="46.51964" lon="-0.71183">
        <ele>95</ele>
        <time>2019-03-05T23:48:49Z</time>
      </trkpt>
      <trkpt lat="46.51965" lon="-0.71183">
        <ele>95</ele>
        <time>2019-03-05T23:49:49Z</time>
      </trkpt>
      <trkpt lat="46.51994" lon="-0.71091">
        <ele>93</ele>
        <time>2019-03-05T23:50:49Z</time>
      </trkpt>
      <trkpt lat="46.51994" lon="-0.71091">
        <ele>93</ele>
        <time>2019-03-05T23:51:49Z</time>
      </trkpt>
      <trkpt lat="46.52014" lon="-0.70962">
        <ele>93</ele>
        <time>2019-03-05T23:52:49Z</time>
      </trkpt>
      <trkpt lat="46.52013" lon="-0.70962">
        <ele>93</ele>
        <time>2019-03-05T23:53:49Z</time>
      </trkpt>
      <trkpt lat="46.52036" lon="-0.70905">
        <ele>94</ele>
        <time>2019-03-05T23:54:49Z</time>
      </trkpt>
      <trkpt lat="46.52079" lon="-0.70833">
        <ele>95</ele>
        <time>2019-03-05T23:55:49Z</time>
      </trkpt>
      <trkpt lat="46.52181" lon="-0.70679">
        <ele>94</ele>
        <time>2019-03-05T23:56:49Z</time>
      </trkpt>
      <trkpt lat="46.52236" lon="-0.70621">
        <ele>92</ele>
        <time>2019-03-05T23:57:49Z</time>
      </trkpt>
      <trkpt lat="46.52257" lon="-0.70613">
        <ele>91</ele>
        <time>2019-03-05T23:58:49Z</time>
      </trkpt>
      <trkpt lat="46.52418" lon="-0.70602">
        <ele>88</ele>
        <time>2019-03-05T23:59:49Z</time>
      </trkpt>
      <trkpt lat="46.52437" lon="-0.70598">
        <ele>88</ele>
        <time>2019-03-06T00:00:49Z</time>
      </trkpt>
      <trkpt lat="46.52462" lon="-0.70559">
        <ele>89</ele>
        <time>2019-03-06T00:01:49Z</time>
      </trkpt>
      <trkpt lat="46.52463" lon="-0.70549">
        <ele>89</ele>
        <time>2019-03-06T00:02:49Z</time>
      </trkpt>
      <trkpt lat="46.52454" lon="-0.70522">
        <ele>89</ele>
        <time>2019-03-06T00:03:49Z</time>
      </trkpt>
      <trkpt lat="46.52467" lon="-0.705">
        <ele>90</ele>
        <time>2019-03-06T00:04:49Z</time>
      </trkpt>
      <trkpt lat="46.52465" lon="-0.70481">
        <ele>90</ele>
        <time>2019-03-06T00:05:49Z</time>
      </trkpt>
      <trkpt lat="46.52467" lon="-0.70468">
        <ele>90</ele>
        <time>2019-03-06T00:06:49Z</time>
      </trkpt>
      <trkpt lat="46.52456" lon="-0.70457">
        <ele>90</ele>
        <time>2019-03-06T00:07:49Z</time>
      </trkpt>
      <trkpt lat="46.52429" lon="-0.7039">
        <ele>89</ele>
        <time>2019-03-06T00:08:49Z</time>
      </trkpt>
      <trkpt lat="46.52419" lon="-0.70371">
        <ele>88</ele>
        <time>2019-03-06T00:09:49Z</time>
      </trkpt>
      <trkpt lat="46.52427" lon="-0.70354">
        <ele>88</ele>
        <time>2019-03-06T00:10:49Z</time>
      </trkpt>
      <trkpt lat="46.52502" lon="-0.70269">
        <ele>88</ele>
        <time>2019-03-06T00:11:49Z</time>
      </trkpt>
      <trkpt lat="46.52527" lon="-0.70236">
        <ele>88</ele>
        <time>2019-03-06T00:12:49Z</time>
      </trkpt>
      <trkpt lat="46.52553" lon="-0.70194">
        <ele>88</ele>
        <time>2019-03-06T00:13:49Z</time>
      </trkpt>
      <trkpt lat="46.52569" lon="-0.70165">
        <ele>88</ele>
        <time>2019-03-06T00:14:49Z</time>
      </trkpt>
      <trkpt lat="46.52588" lon="-0.70117">
        <ele>88</ele>
        <time>2019-03-06T00:15:49Z</time>
      </trkpt>
      <trkpt lat="46.52595" lon="-0.70105">
        <ele>88</ele>
        <time>2019-03-06T00:16:49Z</time>
      </trkpt>
      <trkpt lat="46.5258" lon="-0.70075">
        <ele>88</ele>
        <time>2019-03-06T00:17:49Z</time>
      </trkpt>
      <trkpt lat="46.5252" lon="-0.69888">
        <ele>87</ele>
        <time>2019-03-06T00:18:49Z</time>
      </trkpt>
      <trkpt lat="46.52485" lon="-0.69757">
        <ele>86</ele>
        <time>2019-03-06T00:19:49Z</time>
      </trkpt>
      <trkpt lat="46.52458" lon="-0.69681">
        <ele>86</ele>
        <time>2019-03-06T00:20:49Z</time>
      </trkpt>
      <trkpt lat="46.52388" lon="-0.69552">
        <ele>87</ele>
        <time>2019-03-06T00:21:49Z</time>
      </trkpt>
      <trkpt lat="46.52365" lon="-0.69495">
        <ele>88</ele>
        <time>2019-03-06T00:22:49Z</time>
      </trkpt>
      <trkpt lat="46.52347" lon="-0.69431">
        <ele>87</ele>
        <time>2019-03-06T00:23:49Z</time>
      </trkpt>
      <trkpt lat="46.52301" lon="-0.69237">
        <ele>85</ele>
        <time>2019-03-06T00:24:49Z</time>
      </trkpt>
      <trkpt lat="46.52256" lon="-0.69137">
        <ele>83</ele>
        <time>2019-03-06T00:25:49Z</time>
      </trkpt>
      <trkpt lat="46.52196" lon="-0.69057">
        <ele>82</ele>
        <time>2019-03-06T00:26:49Z</time>
      </trkpt>
      <trkpt lat="46.52155" lon="-0.69006">
        <ele>83</ele>
        <time>2019-03-06T00:27:49Z</time>
      </trkpt>
      <trkpt lat="46.52113" lon="-0.68942">
        <ele>85</ele>
        <time>2019-03-06T00:28:49Z</time>
      </trkpt>
      <trkpt lat="46.52064" lon="-0.68831">
        <ele>87</ele>
        <time>2019-03-06T00:29:49Z</time>
      </trkpt>
      <trkpt lat="46.52246" lon="-0.68664">
        <ele>89</ele>
        <time>2019-03-06T00:30:49Z</time>
      </trkpt>
      <trkpt lat="46.5232" lon="-0.68626">
        <ele>88</ele>
        <time>2019-03-06T00:31:49Z</time>
      </trkpt>
      <trkpt lat="46.52404" lon="-0.68592">
        <ele>88</ele>
        <time>2019-03-06T00:32:49Z</time>
      </trkpt>
      <trkpt lat="46.52419" lon="-0.68534">
        <ele>87</ele>
        <time>2019-03-06T00:33:49Z</time>
      </trkpt>
      <trkpt lat="46.52494" lon="-0.68522">
        <ele>88</ele>
        <time>2019-03-06T00:34:49Z</time>
      </trkpt>
      <trkpt lat="46.5255" lon="-0.68493">
        <ele>87</ele>
        <time>2019-03-06T00:35:49Z</time>
      </trkpt>
      <trkpt lat="46.52572" lon="-0.68488">
        <ele>87</ele>
        <time>2019-03-06T00:36:49Z</time>
      </trkpt>
      <trkpt lat="46.5259" lon="-0.68478">
        <ele>87</ele>
        <time>2019-03-06T00:37:49Z</time>
      </trkpt>
      <trkpt lat="46.52627" lon="-0.6847">
        <ele>86</ele>
        <time>2019-03-06T00:38:49Z</time>
      </trkpt>
      <trkpt lat="46.52649" lon="-0.68473">
        <ele>86</ele>
        <time>2019-03-06T00:39:49Z</time>
      </trkpt>
      <trkpt lat="46.52683" lon="-0.68487">
        <ele>86</ele>
        <time>2019-03-06T00:40:49Z</time>
      </trkpt>
      <trkpt lat="46.527" lon="-0.68483">
        <ele>86</ele>
        <time>2019-03-06T00:41:49Z</time>
      </trkpt>
      <trkpt lat="46.52713" lon="-0.68477">
        <ele>86</ele>
        <time>2019-03-06T00:42:49Z</time>
      </trkpt>
      <trkpt lat="46.52779" lon="-0.68471">
        <ele>87</ele>
        <time>2019-03-06T00:43:49Z</time>
      </trkpt>
      <trkpt lat="46.52843" lon="-0.68441">
        <ele>88</ele>
        <time>2019-03-06T00:44:49Z</time>
      </trkpt>
      <trkpt lat="46.52852" lon="-0.68472">
        <ele>90</ele>
        <time>2019-03-06T00:45:49Z</time>
      </trkpt>
      <trkpt lat="46.52864" lon="-0.68539">
        <ele>91</ele>
        <time>2019-03-06T00:46:49Z</time>
      </trkpt>
      <trkpt lat="46.52874" lon="-0.68585">
        <ele>92</ele>
        <time>2019-03-06T00:47:49Z</time>
      </trkpt>
      <trkpt lat="46.5288" lon="-0.68574">
        <ele>92</ele>
        <time>2019-03-06T00:48:49Z</time>
      </trkpt>
      <trkpt lat="46.52956" lon="-0.68372">
        <ele>88</ele>
        <time>2019-03-06T00:49:49Z</time>
      </trkpt>
      <trkpt lat="46.52985" lon="-0.68354">
        <ele>87</ele>
        <time>2019-03-06T00:50:49Z</time>
      </trkpt>
      <trkpt lat="46.5297" lon="-0.68321">
        <ele>86</ele>
        <time>2019-03-06T00:51:49Z</time>
      </trkpt>
      <trkpt lat="46.5296" lon="-0.68291">
        <ele>85</ele>
        <time>2019-03-06T00:52:49Z</time>
      </trkpt>
      <trkpt lat="46.52961" lon="-0.68291">
        <ele>85</ele>
        <time>2019-03-06T00:53:49Z</time>
      </trkpt>
      <trkpt lat="46.53007" lon="-0.68274">
        <ele>85</ele>
        <time>2019-03-06T00:54:49Z</time>
      </trkpt>
      <trkpt lat="46.53008" lon="-0.68275">
        <ele>85</ele>
        <time>2019-03-06T00:55:49Z</time>
      </trkpt>
      <trkpt lat="46.53015" lon="-0.68342">
        <ele>86</ele>
        <time>2019-03-06T00:56:49Z</time>
      </trkpt>
      <trkpt lat="46.53015" lon="-0.68344">
        <ele>86</ele>
        <time>2019-03-06T00:57:49Z</time>
      </trkpt>
      <trkpt lat="46.53056" lon="-0.68333">
        <ele>85</ele>
        <time>2019-03-06T00:58:49Z</time>
      </trkpt>
      <trkpt lat="46.53128" lon="-0.68297">
        <ele>85</ele>
        <time>2019-03-06T00:59:49Z</time>
      </trkpt>
      <trkpt lat="46.53136" lon="-0.68323">
        <ele>86</ele>
        <time>2019-03-06T01:00:49Z</time>
      </trkpt>
      <trkpt lat="46.53148" lon="-0.68346">
        <ele>86</ele>
        <time>2019-03-06T01:01:49Z</time>
      </trkpt>
      <trkpt lat="46.53157" lon="-0.68375">
        <ele>85</ele>
        <time>2019-03-06T01:02:49Z</time>
      </trkpt>
      <trkpt lat="46.53162" lon="-0.68401">
        <ele>85</ele>
        <time>2019-03-06T01:03:49Z</time>
      </trkpt>
      <trkpt lat="46.53156" lon="-0.68407">
        <ele>85</ele>
        <time>2019-03-06T01:04:49Z</time>
      </trkpt>
      <trkpt lat="46.53212" lon="-0.68566">
        <ele>90</ele>
        <time>2019-03-06T01:05:49Z</time>
      </trkpt>
      <trkpt lat="46.53229" lon="-0.68627">
        <ele>93</ele>
        <time>2019-03-06T01:06:49Z</time>
      </trkpt>
      <trkpt lat="46.53248" lon="-0.68658">
        <ele>95</ele>
        <time>2019-03-06T01:07:49Z</time>
      </trkpt>
      <trkpt lat="46.53263" lon="-0.687">
        <ele>95</ele>
        <time>2019-03-06T01:08:49Z</time>
      </trkpt>
      <trkpt lat="46.53287" lon="-0.68779">
        <ele>96</ele>
        <time>2019-03-06T01:09:49Z</time>
      </trkpt>
      <trkpt lat="46.53229" lon="-0.68823">
        <ele>96</ele>
        <time>2019-03-06T01:10:49Z</time>
      </trkpt>
      <trkpt lat="46.53243" lon="-0.68858">
        <ele>97</ele>
        <time>2019-03-06T01:11:49Z</time>
      </trkpt>
      <trkpt lat="46.53252" lon="-0.68915">
        <ele>98</ele>
        <time>2019-03-06T01:12:49Z</time>
      </trkpt>
      <trkpt lat="46.53254" lon="-0.6903">
        <ele>97</ele>
        <time>2019-03-06T01:13:49Z</time>
      </trkpt>
      <trkpt lat="46.53272" lon="-0.69165">
        <ele>93</ele>
        <time>2019-03-06T01:14:49Z</time>
      </trkpt>
      <trkpt lat="46.53278" lon="-0.69198">
        <ele>92</ele>
        <time>2019-03-06T01:15:49Z</time>
      </trkpt>
      <trkpt lat="46.53311" lon="-0.6919">
        <ele>92</ele>
        <time>2019-03-06T01:16:49Z</time>
      </trkpt>
      <trkpt lat="46.53413" lon="-0.69143">
        <ele>91</ele>
        <time>2019-03-06T01:17:49Z</time>
      </trkpt>
      <trkpt lat="46.53419" lon="-0.69133">
        <ele>91</ele>
        <time>2019-03-06T01:18:49Z</time>
      </trkpt>
      <trkpt lat="46.53476" lon="-0.69177">
        <ele>91</ele>
        <time>2019-03-06T01:19:49Z</time>
      </trkpt>
      <trkpt lat="46.53509" lon="-0.69246">
        <ele>90</ele>
        <time>2019-03-06T01:20:49Z</time>
      </trkpt>
      <trkpt lat="46.53558" lon="-0.69363">
        <ele>88</ele>
        <time>2019-03-06T01:21:49Z</time>
      </trkpt>
      <trkpt lat="46.53623" lon="-0.69406">
        <ele>90</ele>
        <time>2019-03-06T01:22:49Z</time>
      </trkpt>
      <trkpt lat="46.53646" lon="-0.69447">
        <ele>91</ele>
        <time>2019-03-06T01:23:49Z</time>
      </trkpt>
      <trkpt lat="46.53667" lon="-0.69589">
        <ele>91</ele>
        <time>2019-03-06T01:24:49Z</time>
      </trkpt>
      <trkpt lat="46.53698" lon="-0.69723">
        <ele>90</ele>
        <time>2019-03-06T01:25:49Z</time>
      </trkpt>
      <trkpt lat="46.53705" lon="-0.69774">
        <ele>88</ele>
        <time>2019-03-06T01:26:49Z</time>
      </trkpt>
      <trkpt lat="46.53726" lon="-0.69809">
        <ele>86</ele>
        <time>2019-03-06T01:27:49Z</time>
      </trkpt>
      <trkpt lat="46.53742" lon="-0.69813">
        <ele>86</ele>
        <time>2019-03-06T01:28:49Z</time>
      </trkpt>
      <trkpt lat="46.53743" lon="-0.69806">
        <ele>87</ele>
        <time>2019-03-06T01:29:49Z</time>
      </trkpt>
      <trkpt lat="46.53756" lon="-0.69787">
        <ele>87</ele>
        <time>2019-03-06T01:30:49Z</time>
      </trkpt>
      <trkpt lat="46.53779" lon="-0.69769">
        <ele>87</ele>
        <time>2019-03-06T01:31:49Z</time>
      </trkpt>
      <trkpt lat="46.53803" lon="-0.69742">
        <ele>87</ele>
        <time>2019-03-06T01:32:49Z</time>
      </trkpt>
      <trkpt lat="46.53829" lon="-0.69702">
        <ele>86</ele>
        <time>2019-03-06T01:33:49Z</time>
      </trkpt>
      <trkpt lat="46.53921" lon="-0.69881">
        <ele>81</ele>
        <time>2019-03-06T01:34:49Z</time>
      </trkpt>
      <trkpt lat="46.53959" lon="-0.69837">
        <ele>82</ele>
        <time>2019-03-06T01:35:49Z</time>
      </trkpt>
      <trkpt lat="46.53974" lon="-0.69838">
        <ele>82</ele>
        <time>2019-03-06T01:36:49Z</time>
      </trkpt>
      <trkpt lat="46.53998" lon="-0.69865">
        <ele>83</ele>
        <time>2019-03-06T01:37:49Z</time>
      </trkpt>
      <trkpt lat="46.54048" lon="-0.69907">
        <ele>84</ele>
        <time>2019-03-06T01:38:49Z</time>
      </trkpt>
      <trkpt lat="46.54108" lon="-0.69942">
        <ele>86</ele>
        <time>2019-03-06T01:39:49Z</time>
      </trkpt>
      <trkpt lat="46.54163" lon="-0.69982">
        <ele>88</ele>
        <time>2019-03-06T01:40:49Z</time>
      </trkpt>
      <trkpt lat="46.54194" lon="-0.69989">
        <ele>89</ele>
        <time>2019-03-06T01:41:49Z</time>
      </trkpt>
      <trkpt lat="46.54248" lon="-0.69972">
        <ele>92</ele>
        <time>2019-03-06T01:42:49Z</time>
      </trkpt>
      <trkpt lat="46.54298" lon="-0.69966">
        <ele>92</ele>
        <time>2019-03-06T01:43:49Z</time>
      </trkpt>
      <trkpt lat="46.54317" lon="-0.70017">
        <ele>93</ele>
        <time>2019-03-06T01:44:49Z</time>
      </trkpt>
      <trkpt lat="46.54333" lon="-0.70035">
        <ele>93</ele>
        <time>2019-03-06T01:45:49Z</time>
      </trkpt>
      <trkpt lat="46.54372" lon="-0.70025">
        <ele>92</ele>
        <time>2019-03-06T01:46:49Z</time>
      </trkpt>
      <trkpt lat="46.54402" lon="-0.70021">
        <ele>91</ele>
        <time>2019-03-06T01:47:49Z</time>
      </trkpt>
      <trkpt lat="46.54406" lon="-0.70044">
        <ele>91</ele>
        <time>2019-03-06T01:48:49Z</time>
      </trkpt>
      <trkpt lat="46.54422" lon="-0.70156">
        <ele>90</ele>
        <time>2019-03-06T01:49:49Z</time>
      </trkpt>
      <trkpt lat="46.54369" lon="-0.70172">
        <ele>89</ele>
        <time>2019-03-06T01:50:49Z</time>
      </trkpt>
      <trkpt lat="46.54397" lon="-0.70324">
        <ele>93</ele>
        <time>2019-03-06T01:51:49Z</time>
      </trkpt>
      <trkpt lat="46.54437" lon="-0.70486">
        <ele>94</ele>
        <time>2019-03-06T01:52:49Z</time>
      </trkpt>
      <trkpt lat="46.54273" lon="-0.70531">
        <ele>92</ele>
        <time>2019-03-06T01:53:49Z</time>
      </trkpt>
      <trkpt lat="46.54294" lon="-0.70655">
        <ele>90</ele>
        <time>2019-03-06T01:54:49Z</time>
      </trkpt>
      <trkpt lat="46.54334" lon="-0.70775">
        <ele>89</ele>
        <time>2019-03-06T01:55:49Z</time>
      </trkpt>
      <trkpt lat="46.54383" lon="-0.70866">
        <ele>90</ele>
        <time>2019-03-06T01:56:49Z</time>
      </trkpt>
      <trkpt lat="46.54414" lon="-0.70911">
        <ele>91</ele>
        <time>2019-03-06T01:57:49Z</time>
      </trkpt>
      <trkpt lat="46.54426" lon="-0.70918">
        <ele>91</ele>
        <time>2019-03-06T01:58:49Z</time>
      </trkpt>
      <trkpt lat="46.54466" lon="-0.70883">
        <ele>92</ele>
        <time>2019-03-06T01:59:49Z</time>
      </trkpt>
      <trkpt lat="46.54476" lon="-0.70884">
        <ele>92</ele>
        <time>2019-03-06T02:00:49Z</time>
      </trkpt>
      <trkpt lat="46.54562" lon="-0.71045">
        <ele>90</ele>
        <time>2019-03-06T02:01:49Z</time>
      </trkpt>
      <trkpt lat="46.54548" lon="-0.71098">
        <ele>89</ele>
        <time>2019-03-06T02:02:49Z</time>
      </trkpt>
      <trkpt lat="46.54591" lon="-0.71135">
        <ele>87</ele>
        <time>2019-03-06T02:03:49Z</time>
      </trkpt>
      <trkpt lat="46.54649" lon="-0.71193">
        <ele>84</ele>
        <time>2019-03-06T02:04:49Z</time>
      </trkpt>
      <trkpt lat="46.54689" lon="-0.71226">
        <ele>83</ele>
        <time>2019-03-06T02:05:49Z</time>
      </trkpt>
      <trkpt lat="46.54719" lon="-0.71244">
        <ele>83</ele>
        <time>2019-03-06T02:06:49Z</time>
      </trkpt>
      <trkpt lat="46.54735" lon="-0.71245">
        <ele>83</ele>
        <time>2019-03-06T02:07:49Z</time>
      </trkpt>
      <trkpt lat="46.54763" lon="-0.71242">
        <ele>84</ele>
        <time>2019-03-06T02:08:49Z</time>
      </trkpt>
      <trkpt lat="46.54783" lon="-0.71245">
        <ele>85</ele>
        <time>2019-03-06T02:09:49Z</time>
      </trkpt>
      <trkpt lat="46.54864" lon="-0.71294">
        <ele>90</ele>
        <time>2019-03-06T02:10:49Z</time>
      </trkpt>
      <trkpt lat="46.54871" lon="-0.71293">
        <ele>90</ele>
        <time>2019-03-06T02:11:49Z</time>
      </trkpt>
      <trkpt lat="46.54933" lon="-0.71219">
        <ele>91</ele>
        <time>2019-03-06T02:12:49Z</time>
      </trkpt>
      <trkpt lat="46.5497" lon="-0.71313">
        <ele>92</ele>
        <time>2019-03-06T02:13:49Z</time>
      </trkpt>
      <trkpt lat="46.54985" lon="-0.71342">
        <ele>93</ele>
        <time>2019-03-06T02:14:49Z</time>
      </trkpt>
      <trkpt lat="46.55026" lon="-0.71389">
        <ele>95</ele>
        <time>2019-03-06T02:15:49Z</time>
      </trkpt>
      <trkpt lat="46.55049" lon="-0.71453">
        <ele>96</ele>
        <time>2019-03-06T02:16:49Z</time>
      </trkpt>
      <trkpt lat="46.55093" lon="-0.71564">
        <ele>95</ele>
        <time>2019-03-06T02:17:49Z</time>
      </trkpt>
      <trkpt lat="46.55118" lon="-0.71654">
        <ele>94</ele>
        <time>2019-03-06T02:18:49Z</time>
      </trkpt>
      <trkpt lat="46.55124" lon="-0.71663">
        <ele>94</ele>
        <time>2019-03-06T02:19:49Z</time>
      </trkpt>
      <trkpt lat="46.55131" lon="-0.7167">
        <ele>94</ele>
        <time>2019-03-06T02:20:49Z</time>
      </trkpt>
      <trkpt lat="46.55187" lon="-0.71702">
        <ele>96</ele>
        <time>2019-03-06T02:21:49Z</time>
      </trkpt>
      <trkpt lat="46.55171" lon="-0.71742">
        <ele>95</ele>
        <time>2019-03-06T02:22:49Z</time>
      </trkpt>
      <trkpt lat="46.55169" lon="-0.71777">
        <ele>95</ele>
        <time>2019-03-06T02:23:49Z</time>
      </trkpt>
      <trkpt lat="46.55193" lon="-0.71869">
        <ele>95</ele>
        <time>2019-03-06T02:24:49Z</time>
      </trkpt>
      <trkpt lat="46.55203" lon="-0.71946">
        <ele>94</ele>
        <time>2019-03-06T02:25:49Z</time>
      </trkpt>
      <trkpt lat="46.55241" lon="-0.7205">
        <ele>94</ele>
        <time>2019-03-06T02:26:49Z</time>
      </trkpt>
      <trkpt lat="46.55289" lon="-0.72143">
        <ele>94</ele>
        <time>2019-03-06T02:27:49Z</time>
      </trkpt>
      <trkpt lat="46.55296" lon="-0.7215">
        <ele>94</ele>
        <time>2019-03-06T02:28:49Z</time>
      </trkpt>
      <trkpt lat="46.55316" lon="-0.72184">
        <ele>95</ele>
        <time>2019-03-06T02:29:49Z</time>
      </trkpt>
      <trkpt lat="46.55512" lon="-0.72443">
        <ele>100</ele>
        <time>2019-03-06T02:30:49Z</time>
      </trkpt>
      <trkpt lat="46.55673" lon="-0.72646">
        <ele>99</ele>
        <time>2019-03-06T02:31:49Z</time>
      </trkpt>
      <trkpt lat="46.55935" lon="-0.73011">
        <ele>88</ele>
        <time>2019-03-06T02:32:49Z</time>
      </trkpt>
      <trkpt lat="46.56141" lon="-0.73275">
        <ele>80</ele>
        <time>2019-03-06T02:33:49Z</time>
      </trkpt>
      <trkpt lat="46.56147" lon="-0.7328">
        <ele>79</ele>
        <time>2019-03-06T02:34:49Z</time>
      </trkpt>
      <trkpt lat="46.5615" lon="-0.73281">
        <ele>79</ele>
        <time>2019-03-06T02:35:49Z</time>
      </trkpt>
      <trkpt lat="46.56151" lon="-0.7328">
        <ele>79</ele>
        <time>2019-03-06T02:36:49Z</time>
      </trkpt>
      <trkpt lat="46.56173" lon="-0.73319">
        <ele>76</ele>
        <time>2019-03-06T02:37:49Z</time>
      </trkpt>
      <trkpt lat="46.56172" lon="-0.7332">
        <ele>76</ele>
        <time>2019-03-06T02:38:49Z</time>
      </trkpt>
      <trkpt lat="46.56251" lon="-0.73502">
        <ele>82</ele>
        <time>2019-03-06T02:39:49Z</time>
      </trkpt>
      <trkpt lat="46.56332" lon="-0.73616">
        <ele>84</ele>
        <time>2019-03-06T02:40:49Z</time>
      </trkpt>
      <trkpt lat="46.5643" lon="-0.73736">
        <ele>85</ele>
        <time>2019-03-06T02:41:49Z</time>
      </trkpt>
      <trkpt lat="46.56432" lon="-0.73725">
        <ele>85</ele>
        <time>2019-03-06T02:42:49Z</time>
      </trkpt>
      <trkpt lat="46.56604" lon="-0.7351">
        <ele>88</ele>
        <time>2019-03-06T02:43:49Z</time>
      </trkpt>
      <trkpt lat="46.56613" lon="-0.73506">
        <ele>88</ele>
        <time>2019-03-06T02:44:49Z</time>
      </trkpt>
      <trkpt lat="46.56621" lon="-0.73507">
        <ele>88</ele>
        <time>2019-03-06T02:45:49Z</time>
      </trkpt>
      <trkpt lat="46.56639" lon="-0.73494">
        <ele>89</ele>
        <time>2019-03-06T02:46:49Z</time>
      </trkpt>
      <trkpt lat="46.5668" lon="-0.73459">
        <ele>90</ele>
        <time>2019-03-06T02:47:49Z</time>
      </trkpt>
      <trkpt lat="46.56708" lon="-0.73439">
        <ele>91</ele>
        <time>2019-03-06T02:48:49Z</time>
      </trkpt>
      <trkpt lat="46.56717" lon="-0.73425">
        <ele>91</ele>
        <time>2019-03-06T02:49:49Z</time>
      </trkpt>
      <trkpt lat="46.56729" lon="-0.73389">
        <ele>92</ele>
        <time>2019-03-06T02:50:49Z</time>
      </trkpt>
      <trkpt lat="46.56747" lon="-0.7329">
        <ele>92</ele>
        <time>2019-03-06T02:51:49Z</time>
      </trkpt>
      <trkpt lat="46.56764" lon="-0.73237">
        <ele>92</ele>
        <time>2019-03-06T02:52:49Z</time>
      </trkpt>
      <trkpt lat="46.56709" lon="-0.7313">
        <ele>91</ele>
        <time>2019-03-06T02:53:49Z</time>
      </trkpt>
      <trkpt lat="46.56683" lon="-0.73067">
        <ele>94</ele>
        <time>2019-03-06T02:54:49Z</time>
      </trkpt>
      <trkpt lat="46.56682" lon="-0.73068">
        <ele>94</ele>
        <time>2019-03-06T02:55:49Z</time>
      </trkpt>
      <trkpt lat="46.56678" lon="-0.73058">
        <ele>95</ele>
        <time>2019-03-06T02:56:49Z</time>
      </trkpt>
      <trkpt lat="46.56703" lon="-0.73045">
        <ele>95</ele>
        <time>2019-03-06T02:57:49Z</time>
      </trkpt>
      <trkpt lat="46.56822" lon="-0.72944">
        <ele>100</ele>
        <time>2019-03-06T02:58:49Z</time>
      </trkpt>
      <trkpt lat="46.56822" lon="-0.72944">
        <ele>100</ele>
        <time>2019-03-06T02:59:49Z</time>
      </trkpt>
      <trkpt lat="46.5689" lon="-0.72934">
        <ele>100</ele>
        <time>2019-03-06T03:00:49Z</time>
      </trkpt>
      <trkpt lat="46.56919" lon="-0.72909">
        <ele>102</ele>
        <time>2019-03-06T03:01:49Z</time>
      </trkpt>
      <trkpt lat="46.56956" lon="-0.72897">
        <ele>102</ele>
        <time>2019-03-06T03:02:49Z</time>
      </trkpt>
      <trkpt lat="46.5701" lon="-0.729">
        <ele>101</ele>
        <time>2019-03-06T03:03:49Z</time>
      </trkpt>
      <trkpt lat="46.57029" lon="-0.72894">
        <ele>101</ele>
        <time>2019-03-06T03:04:49Z</time>
      </trkpt>
      <trkpt lat="46.57029" lon="-0.72894">
        <ele>101</ele>
        <time>2019-03-06T03:05:49Z</time>
      </trkpt>
      <trkpt lat="46.57091" lon="-0.72824">
        <ele>102</ele>
        <time>2019-03-06T03:06:49Z</time>
      </trkpt>
      <trkpt lat="46.57091" lon="-0.72824">
        <ele>102</ele>
        <time>2019-03-06T03:07:49Z</time>
      </trkpt>
      <trkpt lat="46.57116" lon="-0.72809">
        <ele>102</ele>
        <time>2019-03-06T03:08:49Z</time>
      </trkpt>
      <trkpt lat="46.57153" lon="-0.72808">
        <ele>100</ele>
        <time>2019-03-06T03:09:49Z</time>
      </trkpt>
      <trkpt lat="46.57154" lon="-0.72807">
        <ele>99</ele>
        <time>2019-03-06T03:10:49Z</time>
      </trkpt>
      <trkpt lat="46.57151" lon="-0.72804">
        <ele>100</ele>
        <time>2019-03-06T03:11:49Z</time>
      </trkpt>
      <trkpt lat="46.5715" lon="-0.72607">
        <ele>105</ele>
        <time>2019-03-06T03:12:49Z</time>
      </trkpt>
      <trkpt lat="46.57143" lon="-0.72465">
        <ele>109</ele>
        <time>2019-03-06T03:13:49Z</time>
      </trkpt>
      <trkpt lat="46.57132" lon="-0.72332">
        <ele>110</ele>
        <time>2019-03-06T03:14:49Z</time>
      </trkpt>
      <trkpt lat="46.57114" lon="-0.72258">
        <ele>112</ele>
        <time>2019-03-06T03:15:49Z</time>
      </trkpt>
      <trkpt lat="46.57106" lon="-0.72188">
        <ele>112</ele>
        <time>2019-03-06T03:16:49Z</time>
      </trkpt>
      <trkpt lat="46.571" lon="-0.72108">
        <ele>111</ele>
        <time>2019-03-06T03:17:49Z</time>
      </trkpt>
      <trkpt lat="46.5709" lon="-0.72037">
        <ele>110</ele>
        <time>2019-03-06T03:18:49Z</time>
      </trkpt>
      <trkpt lat="46.57081" lon="-0.71994">
        <ele>109</ele>
        <time>2019-03-06T03:19:49Z</time>
      </trkpt>
      <trkpt lat="46.57067" lon="-0.71944">
        <ele>110</ele>
        <time>2019-03-06T03:20:49Z</time>
      </trkpt>
      <trkpt lat="46.57048" lon="-0.71891">
        <ele>113</ele>
        <time>2019-03-06T03:21:49Z</time>
      </trkpt>
      <trkpt lat="46.57034" lon="-0.7181">
        <ele>114</ele>
        <time>2019-03-06T03:22:49Z</time>
      </trkpt>
      <trkpt lat="46.57014" lon="-0.71716">
        <ele>116</ele>
        <time>2019-03-06T03:23:49Z</time>
      </trkpt>
      <trkpt lat="46.56972" lon="-0.71611">
        <ele>119</ele>
        <time>2019-03-06T03:24:49Z</time>
      </trkpt>
      <trkpt lat="46.5696" lon="-0.71527">
        <ele>118</ele>
        <time>2019-03-06T03:25:49Z</time>
      </trkpt>
      <trkpt lat="46.56956" lon="-0.71494">
        <ele>117</ele>
        <time>2019-03-06T03:26:49Z</time>
      </trkpt>
      <trkpt lat="46.56951" lon="-0.71464">
        <ele>116</ele>
        <time>2019-03-06T03:27:49Z</time>
      </trkpt>
      <trkpt lat="46.56901" lon="-0.71273">
        <ele>116</ele>
        <time>2019-03-06T03:28:49Z</time>
      </trkpt>
      <trkpt lat="46.56882" lon="-0.71205">
        <ele>116</ele>
        <time>2019-03-06T03:29:49Z</time>
      </trkpt>
      <trkpt lat="46.56865" lon="-0.71094">
        <ele>118</ele>
        <time>2019-03-06T03:30:49Z</time>
      </trkpt>
      <trkpt lat="46.56827" lon="-0.70933">
        <ele>119</ele>
        <time>2019-03-06T03:31:49Z</time>
      </trkpt>
      <trkpt lat="46.5683" lon="-0.7089">
        <ele>119</ele>
        <time>2019-03-06T03:32:49Z</time>
      </trkpt>
      <trkpt lat="46.5683" lon="-0.70834">
        <ele>118</ele>
        <time>2019-03-06T03:33:49Z</time>
      </trkpt>
      <trkpt lat="46.56828" lon="-0.70809">
        <ele>117</ele>
        <time>2019-03-06T03:34:49Z</time>
      </trkpt>
      <trkpt lat="46.56823" lon="-0.70706">
        <ele>115</ele>
        <time>2019-03-06T03:35:49Z</time>
      </trkpt>
      <trkpt lat="46.56815" lon="-0.70611">
        <ele>116</ele>
        <time>2019-03-06T03:36:49Z</time>
      </trkpt>
      <trkpt lat="46.56816" lon="-0.70512">
        <ele>117</ele>
        <time>2019-03-06T03:37:49Z</time>
      </trkpt>
      <trkpt lat="46.56814" lon="-0.70393">
        <ele>118</ele>
        <time>2019-03-06T03:38:49Z</time>
      </trkpt>
      <trkpt lat="46.56818" lon="-0.70349">
        <ele>117</ele>
        <time>2019-03-06T03:39:49Z</time>
      </trkpt>
      <trkpt lat="46.5669" lon="-0.70363">
        <ele>113</ele>
        <time>2019-03-06T03:40:49Z</time>
      </trkpt>
      <trkpt lat="46.55966" lon="-0.7046">
        <ele>118</ele>
        <time>2019-03-06T03:41:49Z</time>
      </trkpt>
      <trkpt lat="46.55967" lon="-0.7046">
        <ele>118</ele>
        <time>2019-03-06T03:42:49Z</time>
      </trkpt>
      <trkpt lat="46.55848" lon="-0.70469">
        <ele>116</ele>
        <time>2019-03-06T03:43:49Z</time>
      </trkpt>
      <trkpt lat="46.55769" lon="-0.70529">
        <ele>112</ele>
        <time>2019-03-06T03:44:49Z</time>
      </trkpt>
      <trkpt lat="46.55764" lon="-0.70516">
        <ele>113</ele>
        <time>2019-03-06T03:45:49Z</time>
      </trkpt>
      <trkpt lat="46.55763" lon="-0.70517">
        <ele>113</ele>
        <time>2019-03-06T03:46:49Z</time>
      </trkpt>
      <trkpt lat="46.55703" lon="-0.69506">
        <ele>109</ele>
        <time>2019-03-06T03:47:49Z</time>
      </trkpt>
      <trkpt lat="46.55701" lon="-0.69505">
        <ele>109</ele>
        <time>2019-03-06T03:48:49Z</time>
      </trkpt>
      <trkpt lat="46.55703" lon="-0.69502">
        <ele>109</ele>
        <time>2019-03-06T03:49:49Z</time>
      </trkpt>
      <trkpt lat="46.55693" lon="-0.69477">
        <ele>106</ele>
        <time>2019-03-06T03:50:49Z</time>
      </trkpt>
      <trkpt lat="46.55693" lon="-0.69477">
        <ele>106</ele>
        <time>2019-03-06T03:51:49Z</time>
      </trkpt>
      <trkpt lat="46.55657" lon="-0.69295">
        <ele>99</ele>
        <time>2019-03-06T03:52:49Z</time>
      </trkpt>
      <trkpt lat="46.55656" lon="-0.69296">
        <ele>99</ele>
        <time>2019-03-06T03:53:49Z</time>
      </trkpt>
      <trkpt lat="46.55648" lon="-0.69221">
        <ele>101</ele>
        <time>2019-03-06T03:54:49Z</time>
      </trkpt>
      <trkpt lat="46.55654" lon="-0.69114">
        <ele>103</ele>
        <time>2019-03-06T03:55:49Z</time>
      </trkpt>
      <trkpt lat="46.55676" lon="-0.6902">
        <ele>106</ele>
        <time>2019-03-06T03:56:49Z</time>
      </trkpt>
      <trkpt lat="46.55711" lon="-0.68954">
        <ele>106</ele>
        <time>2019-03-06T03:57:49Z</time>
      </trkpt>
      <trkpt lat="46.55741" lon="-0.68861">
        <ele>108</ele>
        <time>2019-03-06T03:58:49Z</time>
      </trkpt>
      <trkpt lat="46.5589" lon="-0.68586">
        <ele>109</ele>
        <time>2019-03-06T03:59:49Z</time>
      </trkpt>
      <trkpt lat="46.55919" lon="-0.68496">
        <ele>110</ele>
        <time>2019-03-06T04:00:49Z</time>
      </trkpt>
      <trkpt lat="46.5596" lon="-0.68227">
        <ele>114</ele>
        <time>2019-03-06T04:01:49Z</time>
      </trkpt>
      <trkpt lat="46.56087" lon="-0.67849">
        <ele>119</ele>
        <time>2019-03-06T04:02:49Z</time>
      </trkpt>
      <trkpt lat="46.56114" lon="-0.67701">
        <ele>118</ele>
        <time>2019-03-06T04:03:49Z</time>
      </trkpt>
      <trkpt lat="46.56103" lon="-0.67612">
        <ele>116</ele>
        <time>2019-03-06T04:04:49Z</time>
      </trkpt>
      <trkpt lat="46.5612" lon="-0.67472">
        <ele>115</ele>
        <time>2019-03-06T04:05:49Z</time>
      </trkpt>
      <trkpt lat="46.56122" lon="-0.67405">
        <ele>116</ele>
        <time>2019-03-06T04:06:49Z</time>
      </trkpt>
      <trkpt lat="46.561" lon="-0.67348">
        <ele>117</ele>
        <time>2019-03-06T04:07:49Z</time>
      </trkpt>
      <trkpt lat="46.56056" lon="-0.6729">
        <ele>117</ele>
        <time>2019-03-06T04:08:49Z</time>
      </trkpt>
      <trkpt lat="46.56044" lon="-0.6727">
        <ele>117</ele>
        <time>2019-03-06T04:09:49Z</time>
      </trkpt>
      <trkpt lat="46.56005" lon="-0.67165">
        <ele>118</ele>
        <time>2019-03-06T04:10:49Z</time>
      </trkpt>
      <trkpt lat="46.55995" lon="-0.67145">
        <ele>118</ele>
        <time>2019-03-06T04:11:49Z</time>
      </trkpt>
      <trkpt lat="46.55974" lon="-0.67117">
        <ele>117</ele>
        <time>2019-03-06T04:12:49Z</time>
      </trkpt>
      <trkpt lat="46.55982" lon="-0.67099">
        <ele>117</ele>
        <time>2019-03-06T04:13:49Z</time>
      </trkpt>
      <trkpt lat="46.5607" lon="-0.66818">
        <ele>112</ele>
        <time>2019-03-06T04:14:49Z</time>
      </trkpt>
      <trkpt lat="46.56089" lon="-0.66775">
        <ele>113</ele>
        <time>2019-03-06T04:15:49Z</time>
      </trkpt>
      <trkpt lat="46.56097" lon="-0.66761">
        <ele>114</ele>
        <time>2019-03-06T04:16:49Z</time>
      </trkpt>
      <trkpt lat="46.56107" lon="-0.66748">
        <ele>114</ele>
        <time>2019-03-06T04:17:49Z</time>
      </trkpt>
      <trkpt lat="46.5614" lon="-0.66714">
        <ele>116</ele>
        <time>2019-03-06T04:18:49Z</time>
      </trkpt>
      <trkpt lat="46.56203" lon="-0.66835">
        <ele>118</ele>
        <time>2019-03-06T04:19:49Z</time>
      </trkpt>
      <trkpt lat="46.56219" lon="-0.66843">
        <ele>118</ele>
        <time>2019-03-06T04:20:49Z</time>
      </trkpt>
      <trkpt lat="46.56226" lon="-0.66853">
        <ele>118</ele>
        <time>2019-03-06T04:21:49Z</time>
      </trkpt>
      <trkpt lat="46.5623" lon="-0.66866">
        <ele>118</ele>
        <time>2019-03-06T04:22:49Z</time>
      </trkpt>
      <trkpt lat="46.56231" lon="-0.66877">
        <ele>118</ele>
        <time>2019-03-06T04:23:49Z</time>
      </trkpt>
      <trkpt lat="46.56232" lon="-0.66927">
        <ele>118</ele>
        <time>2019-03-06T04:24:49Z</time>
      </trkpt>
      <trkpt lat="46.56237" lon="-0.66949">
        <ele>119</ele>
        <time>2019-03-06T04:25:49Z</time>
      </trkpt>
      <trkpt lat="46.56242" lon="-0.66958">
        <ele>119</ele>
        <time>2019-03-06T04:26:49Z</time>
      </trkpt>
      <trkpt lat="46.56252" lon="-0.66965">
        <ele>119</ele>
        <time>2019-03-06T04:27:49Z</time>
      </trkpt>
      <trkpt lat="46.56295" lon="-0.66968">
        <ele>116</ele>
        <time>2019-03-06T04:28:49Z</time>
      </trkpt>
      <trkpt lat="46.56325" lon="-0.66977">
        <ele>114</ele>
        <time>2019-03-06T04:29:49Z</time>
      </trkpt>
      <trkpt lat="46.56337" lon="-0.6701">
        <ele>114</ele>
        <time>2019-03-06T04:30:49Z</time>
      </trkpt>
      <trkpt lat="46.56338" lon="-0.67019">
        <ele>114</ele>
        <time>2019-03-06T04:31:49Z</time>
      </trkpt>
      <trkpt lat="46.56422" lon="-0.66937">
        <ele>102</ele>
        <time>2019-03-06T04:32:49Z</time>
      </trkpt>
      <trkpt lat="46.56517" lon="-0.66891">
        <ele>97</ele>
        <time>2019-03-06T04:33:49Z</time>
      </trkpt>
      <trkpt lat="46.56633" lon="-0.66827">
        <ele>93</ele>
        <time>2019-03-06T04:34:49Z</time>
      </trkpt>
      <trkpt lat="46.56686" lon="-0.66761">
        <ele>91</ele>
        <time>2019-03-06T04:35:49Z</time>
      </trkpt>
      <trkpt lat="46.56721" lon="-0.66729">
        <ele>89</ele>
        <time>2019-03-06T04:36:49Z</time>
      </trkpt>
      <trkpt lat="46.56746" lon="-0.6657">
        <ele>93</ele>
        <time>2019-03-06T04:37:49Z</time>
      </trkpt>
      <trkpt lat="46.5677" lon="-0.66515">
        <ele>91</ele>
        <time>2019-03-06T04:38:49Z</time>
      </trkpt>
      <trkpt lat="46.56767" lon="-0.66465">
        <ele>91</ele>
        <time>2019-03-06T04:39:49Z</time>
      </trkpt>
      <trkpt lat="46.56729" lon="-0.66461">
        <ele>92</ele>
        <time>2019-03-06T04:40:49Z</time>
      </trkpt>
      <trkpt lat="46.5668" lon="-0.66268">
        <ele>92</ele>
        <time>2019-03-06T04:41:49Z</time>
      </trkpt>
      <trkpt lat="46.56679" lon="-0.66244">
        <ele>93</ele>
        <time>2019-03-06T04:42:49Z</time>
      </trkpt>
      <trkpt lat="46.56696" lon="-0.66155">
        <ele>93</ele>
        <time>2019-03-06T04:43:49Z</time>
      </trkpt>
      <trkpt lat="46.56714" lon="-0.66149">
        <ele>93</ele>
        <time>2019-03-06T04:44:49Z</time>
      </trkpt>
      <trkpt lat="46.56753" lon="-0.66173">
        <ele>94</ele>
        <time>2019-03-06T04:45:49Z</time>
      </trkpt>
      <trkpt lat="46.56841" lon="-0.6606">
        <ele>98</ele>
        <time>2019-03-06T04:46:49Z</time>
      </trkpt>
      <trkpt lat="46.56846" lon="-0.66041">
        <ele>98</ele>
        <time>2019-03-06T04:47:49Z</time>
      </trkpt>
      <trkpt lat="46.56838" lon="-0.66009">
        <ele>99</ele>
        <time>2019-03-06T04:48:49Z</time>
      </trkpt>
      <trkpt lat="46.56752" lon="-0.65833">
        <ele>91</ele>
        <time>2019-03-06T04:49:49Z</time>
      </trkpt>
      <trkpt lat="46.56708" lon="-0.65737">
        <ele>86</ele>
        <time>2019-03-06T04:50:49Z</time>
      </trkpt>
      <trkpt lat="46.5661" lon="-0.65439">
        <ele>77</ele>
        <time>2019-03-06T04:51:49Z</time>
      </trkpt>
      <trkpt lat="46.56605" lon="-0.65429">
        <ele>77</ele>
        <time>2019-03-06T04:52:49Z</time>
      </trkpt>
      <trkpt lat="46.56611" lon="-0.65415">
        <ele>77</ele>
        <time>2019-03-06T04:53:49Z</time>
      </trkpt>
      <trkpt lat="46.56625" lon="-0.65369">
        <ele>76</ele>
        <time>2019-03-06T04:54:49Z</time>
      </trkpt>
      <trkpt lat="46.56634" lon="-0.65348">
        <ele>76</ele>
        <time>2019-03-06T04:55:49Z</time>
      </trkpt>
      <trkpt lat="46.56642" lon="-0.65336">
        <ele>76</ele>
        <time>2019-03-06T04:56:49Z</time>
      </trkpt>
      <trkpt lat="46.56654" lon="-0.65322">
        <ele>76</ele>
        <time>2019-03-06T04:57:49Z</time>
      </trkpt>
      <trkpt lat="46.567" lon="-0.65298">
        <ele>77</ele>
        <time>2019-03-06T04:58:49Z</time>
      </trkpt>
      <trkpt lat="46.56778" lon="-0.65227">
        <ele>75</ele>
        <time>2019-03-06T04:59:49Z</time>
      </trkpt>
      <trkpt lat="46.56797" lon="-0.65212">
        <ele>76</ele>
        <time>2019-03-06T05:00:49Z</time>
      </trkpt>
      <trkpt lat="46.56967" lon="-0.65115">
        <ele>79</ele>
        <time>2019-03-06T05:01:49Z</time>
      </trkpt>
      <trkpt lat="46.56968" lon="-0.65117">
        <ele>79</ele>
        <time>2019-03-06T05:02:49Z</time>
      </trkpt>
      <trkpt lat="46.56991" lon="-0.65226">
        <ele>88</ele>
        <time>2019-03-06T05:03:49Z</time>
      </trkpt>
    </trkseg>
  </trk>
</gpx>